<?xml version="1.0" encoding="UTF-8" standalone="no" ?>
<gpx xmlns="http://www.topografix.com/GPX/1/1" xmlns:xsi="http://www.w3.org/2001/XMLSchema-instance" xsi:schemaLocation="http://www.topografix.com/GPX/1/1 http://www.topografix.com/GPX/1/1/gpx.xsd" version="1.1" creator="VisuGPX - https://www.visugpx.com">
  <metadata>
    <name>monteils - Villefranche GR36 et chemins</name>
  </metadata>
  <trk>
    <name><![CDATA[monteils - Villefranche GR36 et chemins_1]]></name>
    <trkseg>
      <trkpt lat="44.29683" lon="2.01941">
        <ele>392.494</ele>
        <time>2019-08-28T07:38:41Z</time>
      </trkpt>
      <trkpt lat="44.29674" lon="2.01942">
        <ele>393.869</ele>
        <time>2019-08-28T07:41:15Z</time>
      </trkpt>
      <trkpt lat="44.29657" lon="2.01953">
        <ele>393.933</ele>
        <time>2019-08-28T07:41:21Z</time>
      </trkpt>
      <trkpt lat="44.29642" lon="2.01966">
        <ele>394.433</ele>
        <time>2019-08-28T07:41:27Z</time>
      </trkpt>
      <trkpt lat="44.29629" lon="2.01975">
        <ele>394.706</ele>
        <time>2019-08-28T07:41:32Z</time>
      </trkpt>
      <trkpt lat="44.29615" lon="2.01987">
        <ele>395.46</ele>
        <time>2019-08-28T07:41:38Z</time>
      </trkpt>
      <trkpt lat="44.29598" lon="2.01996">
        <ele>398.549</ele>
        <time>2019-08-28T07:41:44Z</time>
      </trkpt>
      <trkpt lat="44.29581" lon="2.02005">
        <ele>401.677</ele>
        <time>2019-08-28T07:41:50Z</time>
      </trkpt>
      <trkpt lat="44.29568" lon="2.02012">
        <ele>403.992</ele>
        <time>2019-08-28T07:41:55Z</time>
      </trkpt>
      <trkpt lat="44.29554" lon="2.02021">
        <ele>406.379</ele>
        <time>2019-08-28T07:42:00Z</time>
      </trkpt>
      <trkpt lat="44.29537" lon="2.02033">
        <ele>409.207</ele>
        <time>2019-08-28T07:42:06Z</time>
      </trkpt>
      <trkpt lat="44.29521" lon="2.02044">
        <ele>410.842</ele>
        <time>2019-08-28T07:42:11Z</time>
      </trkpt>
      <trkpt lat="44.29508" lon="2.02056">
        <ele>411.905</ele>
        <time>2019-08-28T07:42:16Z</time>
      </trkpt>
      <trkpt lat="44.29494" lon="2.02076">
        <ele>412.77</ele>
        <time>2019-08-28T07:42:21Z</time>
      </trkpt>
      <trkpt lat="44.29475" lon="2.02109">
        <ele>413.261</ele>
        <time>2019-08-28T07:42:27Z</time>
      </trkpt>
      <trkpt lat="44.29457" lon="2.02137">
        <ele>412.792</ele>
        <time>2019-08-28T07:42:32Z</time>
      </trkpt>
      <trkpt lat="44.29429" lon="2.02159">
        <ele>413.855</ele>
        <time>2019-08-28T07:42:38Z</time>
      </trkpt>
      <trkpt lat="44.29409" lon="2.02186">
        <ele>415.781</ele>
        <time>2019-08-28T07:42:46Z</time>
      </trkpt>
      <trkpt lat="44.29394" lon="2.02216">
        <ele>415.684</ele>
        <time>2019-08-28T07:42:53Z</time>
      </trkpt>
      <trkpt lat="44.29374" lon="2.02243">
        <ele>415.465</ele>
        <time>2019-08-28T07:43:00Z</time>
      </trkpt>
      <trkpt lat="44.29361" lon="2.02265">
        <ele>415.826</ele>
        <time>2019-08-28T07:43:06Z</time>
      </trkpt>
      <trkpt lat="44.29346" lon="2.02248">
        <ele>414.358</ele>
        <time>2019-08-28T07:43:12Z</time>
      </trkpt>
      <trkpt lat="44.2933" lon="2.02225">
        <ele>413.434</ele>
        <time>2019-08-28T07:43:17Z</time>
      </trkpt>
      <trkpt lat="44.29311" lon="2.02195">
        <ele>411.894</ele>
        <time>2019-08-28T07:43:23Z</time>
      </trkpt>
      <trkpt lat="44.29296" lon="2.02173">
        <ele>411.553</ele>
        <time>2019-08-28T07:43:28Z</time>
      </trkpt>
      <trkpt lat="44.29281" lon="2.02146">
        <ele>410.38</ele>
        <time>2019-08-28T07:43:34Z</time>
      </trkpt>
      <trkpt lat="44.29262" lon="2.02118">
        <ele>408.212</ele>
        <time>2019-08-28T07:43:40Z</time>
      </trkpt>
      <trkpt lat="44.29237" lon="2.02092">
        <ele>405.638</ele>
        <time>2019-08-28T07:43:45Z</time>
      </trkpt>
      <trkpt lat="44.29196" lon="2.02056">
        <ele>402.668</ele>
        <time>2019-08-28T07:43:52Z</time>
      </trkpt>
      <trkpt lat="44.29165" lon="2.0203">
        <ele>401.24</ele>
        <time>2019-08-28T07:43:58Z</time>
      </trkpt>
      <trkpt lat="44.29143" lon="2.02012">
        <ele>400.139</ele>
        <time>2019-08-28T07:44:04Z</time>
      </trkpt>
      <trkpt lat="44.29115" lon="2.02005">
        <ele>401.074</ele>
        <time>2019-08-28T07:44:10Z</time>
      </trkpt>
      <trkpt lat="44.29081" lon="2.02015">
        <ele>401.443</ele>
        <time>2019-08-28T07:44:16Z</time>
      </trkpt>
      <trkpt lat="44.29056" lon="2.02025">
        <ele>402.887</ele>
        <time>2019-08-28T07:44:22Z</time>
      </trkpt>
      <trkpt lat="44.29052" lon="2.02012">
        <ele>403.762</ele>
        <time>2019-08-28T07:44:28Z</time>
      </trkpt>
      <trkpt lat="44.29043" lon="2.01995">
        <ele>405.436</ele>
        <time>2019-08-28T07:44:35Z</time>
      </trkpt>
      <trkpt lat="44.29036" lon="2.0198">
        <ele>407.557</ele>
        <time>2019-08-28T07:44:41Z</time>
      </trkpt>
      <trkpt lat="44.29042" lon="2.01961">
        <ele>410.879</ele>
        <time>2019-08-28T07:44:46Z</time>
      </trkpt>
      <trkpt lat="44.29046" lon="2.01933">
        <ele>414.931</ele>
        <time>2019-08-28T07:44:52Z</time>
      </trkpt>
      <trkpt lat="44.29048" lon="2.01904">
        <ele>416.926</ele>
        <time>2019-08-28T07:44:58Z</time>
      </trkpt>
      <trkpt lat="44.2905" lon="2.01878">
        <ele>419.632</ele>
        <time>2019-08-28T07:45:04Z</time>
      </trkpt>
      <trkpt lat="44.29053" lon="2.0186">
        <ele>421.161</ele>
        <time>2019-08-28T07:45:09Z</time>
      </trkpt>
      <trkpt lat="44.29043" lon="2.01847">
        <ele>424.26</ele>
        <time>2019-08-28T07:45:15Z</time>
      </trkpt>
      <trkpt lat="44.28991" lon="2.01833">
        <ele>432.115</ele>
        <time>2019-08-28T07:45:35Z</time>
      </trkpt>
      <trkpt lat="44.28972" lon="2.01826">
        <ele>434.452</ele>
        <time>2019-08-28T07:45:44Z</time>
      </trkpt>
      <trkpt lat="44.28959" lon="2.01824">
        <ele>436.723</ele>
        <time>2019-08-28T07:45:49Z</time>
      </trkpt>
      <trkpt lat="44.28942" lon="2.01821">
        <ele>438.677</ele>
        <time>2019-08-28T07:45:55Z</time>
      </trkpt>
      <trkpt lat="44.28927" lon="2.0181">
        <ele>439.802</ele>
        <time>2019-08-28T07:46:00Z</time>
      </trkpt>
      <trkpt lat="44.28923" lon="2.0178">
        <ele>442.055</ele>
        <time>2019-08-28T07:46:06Z</time>
      </trkpt>
      <trkpt lat="44.2892" lon="2.01754">
        <ele>442.469</ele>
        <time>2019-08-28T07:46:12Z</time>
      </trkpt>
      <trkpt lat="44.2891" lon="2.01736">
        <ele>442.606</ele>
        <time>2019-08-28T07:46:18Z</time>
      </trkpt>
      <trkpt lat="44.28898" lon="2.01734">
        <ele>442.303</ele>
        <time>2019-08-28T07:46:24Z</time>
      </trkpt>
      <trkpt lat="44.28884" lon="2.01731">
        <ele>440.579</ele>
        <time>2019-08-28T07:46:30Z</time>
      </trkpt>
      <trkpt lat="44.28869" lon="2.01729">
        <ele>438.94</ele>
        <time>2019-08-28T07:46:35Z</time>
      </trkpt>
      <trkpt lat="44.28856" lon="2.01726">
        <ele>437.215</ele>
        <time>2019-08-28T07:46:40Z</time>
      </trkpt>
      <trkpt lat="44.28845" lon="2.01725">
        <ele>436.155</ele>
        <time>2019-08-28T07:46:46Z</time>
      </trkpt>
      <trkpt lat="44.28834" lon="2.01722">
        <ele>435.312</ele>
        <time>2019-08-28T07:47:29Z</time>
      </trkpt>
      <trkpt lat="44.28817" lon="2.01716">
        <ele>434.626</ele>
        <time>2019-08-28T07:47:35Z</time>
      </trkpt>
      <trkpt lat="44.28797" lon="2.01706">
        <ele>433.72</ele>
        <time>2019-08-28T07:47:41Z</time>
      </trkpt>
      <trkpt lat="44.28774" lon="2.01693">
        <ele>432.407</ele>
        <time>2019-08-28T07:47:47Z</time>
      </trkpt>
      <trkpt lat="44.28752" lon="2.01681">
        <ele>431.372</ele>
        <time>2019-08-28T07:47:53Z</time>
      </trkpt>
      <trkpt lat="44.28728" lon="2.01674">
        <ele>430.545</ele>
        <time>2019-08-28T07:47:59Z</time>
      </trkpt>
      <trkpt lat="44.28712" lon="2.01665">
        <ele>429.804</ele>
        <time>2019-08-28T07:48:04Z</time>
      </trkpt>
      <trkpt lat="44.28697" lon="2.01661">
        <ele>427.231</ele>
        <time>2019-08-28T07:48:09Z</time>
      </trkpt>
      <trkpt lat="44.28676" lon="2.01661">
        <ele>425.845</ele>
        <time>2019-08-28T07:48:15Z</time>
      </trkpt>
      <trkpt lat="44.28659" lon="2.0167">
        <ele>425.219</ele>
        <time>2019-08-28T07:48:21Z</time>
      </trkpt>
      <trkpt lat="44.28643" lon="2.01675">
        <ele>425.276</ele>
        <time>2019-08-28T07:48:26Z</time>
      </trkpt>
      <trkpt lat="44.28639" lon="2.01692">
        <ele>425.18</ele>
        <time>2019-08-28T07:48:32Z</time>
      </trkpt>
      <trkpt lat="44.28635" lon="2.01712">
        <ele>423.924</ele>
        <time>2019-08-28T07:48:37Z</time>
      </trkpt>
      <trkpt lat="44.28629" lon="2.01764">
        <ele>423.77</ele>
        <time>2019-08-28T07:48:49Z</time>
      </trkpt>
      <trkpt lat="44.28624" lon="2.01789">
        <ele>421.853</ele>
        <time>2019-08-28T07:49:08Z</time>
      </trkpt>
      <trkpt lat="44.28615" lon="2.01796">
        <ele>420.43</ele>
        <time>2019-08-28T07:49:16Z</time>
      </trkpt>
      <trkpt lat="44.28607" lon="2.01814">
        <ele>419.259</ele>
        <time>2019-08-28T07:49:34Z</time>
      </trkpt>
      <trkpt lat="44.28618" lon="2.01824">
        <ele>416.289</ele>
        <time>2019-08-28T07:49:45Z</time>
      </trkpt>
      <trkpt lat="44.2865" lon="2.01877">
        <ele>408.499</ele>
        <time>2019-08-28T07:50:10Z</time>
      </trkpt>
      <trkpt lat="44.28672" lon="2.01895">
        <ele>404.369</ele>
        <time>2019-08-28T07:50:21Z</time>
      </trkpt>
      <trkpt lat="44.28686" lon="2.01897">
        <ele>402.223</ele>
        <time>2019-08-28T07:50:28Z</time>
      </trkpt>
      <trkpt lat="44.28765" lon="2.0201">
        <ele>393.5</ele>
        <time>2019-08-28T07:51:16Z</time>
      </trkpt>
      <trkpt lat="44.28775" lon="2.02031">
        <ele>388.965</ele>
        <time>2019-08-28T07:51:22Z</time>
      </trkpt>
      <trkpt lat="44.28778" lon="2.02055">
        <ele>385.57</ele>
        <time>2019-08-28T07:51:29Z</time>
      </trkpt>
      <trkpt lat="44.28761" lon="2.02181">
        <ele>380.27</ele>
        <time>2019-08-28T07:51:53Z</time>
      </trkpt>
      <trkpt lat="44.28335" lon="2.01028">
        <ele>287.971</ele>
        <time>2019-08-28T07:56:35Z</time>
      </trkpt>
      <trkpt lat="44.28339" lon="2.00994">
        <ele>287.991</ele>
        <time>2019-08-28T07:56:40Z</time>
      </trkpt>
      <trkpt lat="44.28346" lon="2.00948">
        <ele>285.716</ele>
        <time>2019-08-28T07:56:46Z</time>
      </trkpt>
      <trkpt lat="44.28389" lon="2.00787">
        <ele>272.727</ele>
        <time>2019-08-28T07:57:06Z</time>
      </trkpt>
      <trkpt lat="44.28378" lon="2.00729">
        <ele>269.606</ele>
        <time>2019-08-28T07:57:13Z</time>
      </trkpt>
      <trkpt lat="44.2835" lon="2.00692">
        <ele>267.711</ele>
        <time>2019-08-28T07:57:19Z</time>
      </trkpt>
      <trkpt lat="44.28325" lon="2.00646">
        <ele>264.772</ele>
        <time>2019-08-28T07:57:25Z</time>
      </trkpt>
      <trkpt lat="44.28312" lon="2.00602">
        <ele>262.847</ele>
        <time>2019-08-28T07:57:31Z</time>
      </trkpt>
      <trkpt lat="44.2831" lon="2.0056">
        <ele>260.914</ele>
        <time>2019-08-28T07:57:37Z</time>
      </trkpt>
      <trkpt lat="44.28317" lon="2.00525">
        <ele>259.472</ele>
        <time>2019-08-28T07:57:43Z</time>
      </trkpt>
      <trkpt lat="44.28324" lon="2.00493">
        <ele>258.132</ele>
        <time>2019-08-28T07:57:48Z</time>
      </trkpt>
      <trkpt lat="44.28324" lon="2.0045">
        <ele>256.768</ele>
        <time>2019-08-28T07:57:54Z</time>
      </trkpt>
      <trkpt lat="44.28326" lon="2.00407">
        <ele>256.34</ele>
        <time>2019-08-28T07:57:59Z</time>
      </trkpt>
      <trkpt lat="44.28347" lon="2.00357">
        <ele>255.551</ele>
        <time>2019-08-28T07:58:05Z</time>
      </trkpt>
      <trkpt lat="44.28358" lon="2.00316">
        <ele>254.748</ele>
        <time>2019-08-28T07:58:10Z</time>
      </trkpt>
      <trkpt lat="44.28371" lon="2.00278">
        <ele>253.199</ele>
        <time>2019-08-28T07:58:16Z</time>
      </trkpt>
      <trkpt lat="44.2838" lon="2.00253">
        <ele>252.919</ele>
        <time>2019-08-28T07:58:22Z</time>
      </trkpt>
      <trkpt lat="44.28397" lon="2.00209">
        <ele>250.376</ele>
        <time>2019-08-28T07:58:28Z</time>
      </trkpt>
      <trkpt lat="44.28413" lon="2.00158">
        <ele>247.707</ele>
        <time>2019-08-28T07:58:34Z</time>
      </trkpt>
      <trkpt lat="44.28424" lon="2.00134">
        <ele>246.316</ele>
        <time>2019-08-28T07:58:40Z</time>
      </trkpt>
      <trkpt lat="44.28425" lon="2.00113">
        <ele>244.708</ele>
        <time>2019-08-28T07:58:45Z</time>
      </trkpt>
      <trkpt lat="44.284" lon="2.00089">
        <ele>243.351</ele>
        <time>2019-08-28T07:58:51Z</time>
      </trkpt>
      <trkpt lat="44.28369" lon="2.00074">
        <ele>242.812</ele>
        <time>2019-08-28T07:58:56Z</time>
      </trkpt>
      <trkpt lat="44.28335" lon="2.0006">
        <ele>241.621</ele>
        <time>2019-08-28T07:59:02Z</time>
      </trkpt>
      <trkpt lat="44.28302" lon="2.00046">
        <ele>240.597</ele>
        <time>2019-08-28T07:59:08Z</time>
      </trkpt>
      <trkpt lat="44.28271" lon="2.00037">
        <ele>240.32</ele>
        <time>2019-08-28T07:59:13Z</time>
      </trkpt>
      <trkpt lat="44.2823" lon="2.00031">
        <ele>239.629</ele>
        <time>2019-08-28T07:59:19Z</time>
      </trkpt>
      <trkpt lat="44.28186" lon="2.00031">
        <ele>241.468</ele>
        <time>2019-08-28T07:59:26Z</time>
      </trkpt>
      <trkpt lat="44.28155" lon="2.00036">
        <ele>241.612</ele>
        <time>2019-08-28T07:59:31Z</time>
      </trkpt>
      <trkpt lat="44.28126" lon="2.00052">
        <ele>241.611</ele>
        <time>2019-08-28T07:59:36Z</time>
      </trkpt>
      <trkpt lat="44.28092" lon="2.0007">
        <ele>239.174</ele>
        <time>2019-08-28T07:59:42Z</time>
      </trkpt>
      <trkpt lat="44.28063" lon="2.00074">
        <ele>238.948</ele>
        <time>2019-08-28T07:59:47Z</time>
      </trkpt>
      <trkpt lat="44.2803" lon="2.00064">
        <ele>238.889</ele>
        <time>2019-08-28T07:59:53Z</time>
      </trkpt>
      <trkpt lat="44.28001" lon="2.00056">
        <ele>238.541</ele>
        <time>2019-08-28T07:59:58Z</time>
      </trkpt>
      <trkpt lat="44.27966" lon="2.00049">
        <ele>238.05</ele>
        <time>2019-08-28T08:00:04Z</time>
      </trkpt>
      <trkpt lat="44.2793" lon="2.00042">
        <ele>237.772</ele>
        <time>2019-08-28T08:00:10Z</time>
      </trkpt>
      <trkpt lat="44.27899" lon="2.00044">
        <ele>236.476</ele>
        <time>2019-08-28T08:00:15Z</time>
      </trkpt>
      <trkpt lat="44.27867" lon="2.00051">
        <ele>236.086</ele>
        <time>2019-08-28T08:00:20Z</time>
      </trkpt>
      <trkpt lat="44.27836" lon="2.00059">
        <ele>236.327</ele>
        <time>2019-08-28T08:00:25Z</time>
      </trkpt>
      <trkpt lat="44.27799" lon="2.00068">
        <ele>236.175</ele>
        <time>2019-08-28T08:00:31Z</time>
      </trkpt>
      <trkpt lat="44.27769" lon="2.00075">
        <ele>235.717</ele>
        <time>2019-08-28T08:00:36Z</time>
      </trkpt>
      <trkpt lat="44.2774" lon="2.00085">
        <ele>236.197</ele>
        <time>2019-08-28T08:00:42Z</time>
      </trkpt>
      <trkpt lat="44.27705" lon="2.00099">
        <ele>235.27</ele>
        <time>2019-08-28T08:00:47Z</time>
      </trkpt>
      <trkpt lat="44.27675" lon="2.00113">
        <ele>235.6</ele>
        <time>2019-08-28T08:00:52Z</time>
      </trkpt>
      <trkpt lat="44.27641" lon="2.00128">
        <ele>235.367</ele>
        <time>2019-08-28T08:00:58Z</time>
      </trkpt>
      <trkpt lat="44.27607" lon="2.00142">
        <ele>234.474</ele>
        <time>2019-08-28T08:01:04Z</time>
      </trkpt>
      <trkpt lat="44.27574" lon="2.00159">
        <ele>234.76</ele>
        <time>2019-08-28T08:01:10Z</time>
      </trkpt>
      <trkpt lat="44.27546" lon="2.00173">
        <ele>234.977</ele>
        <time>2019-08-28T08:01:15Z</time>
      </trkpt>
      <trkpt lat="44.27512" lon="2.00189">
        <ele>235.49</ele>
        <time>2019-08-28T08:01:21Z</time>
      </trkpt>
      <trkpt lat="44.27442" lon="2.00213">
        <ele>236.248</ele>
        <time>2019-08-28T08:01:33Z</time>
      </trkpt>
      <trkpt lat="44.27343" lon="2.00238">
        <ele>234.835</ele>
        <time>2019-08-28T08:01:50Z</time>
      </trkpt>
      <trkpt lat="44.27307" lon="2.00265">
        <ele>235.614</ele>
        <time>2019-08-28T08:01:57Z</time>
      </trkpt>
      <trkpt lat="44.27269" lon="2.00294">
        <ele>236.98</ele>
        <time>2019-08-28T08:02:04Z</time>
      </trkpt>
      <trkpt lat="44.27238" lon="2.00305">
        <ele>239.071</ele>
        <time>2019-08-28T08:02:10Z</time>
      </trkpt>
      <trkpt lat="44.27219" lon="2.00339">
        <ele>240.457</ele>
        <time>2019-08-28T08:02:16Z</time>
      </trkpt>
      <trkpt lat="44.27197" lon="2.00326">
        <ele>242.179</ele>
        <time>2019-08-28T08:02:22Z</time>
      </trkpt>
      <trkpt lat="44.2707" lon="2.00263">
        <ele>245.384</ele>
        <time>2019-08-28T08:02:49Z</time>
      </trkpt>
      <trkpt lat="44.27009" lon="2.00245">
        <ele>244.123</ele>
        <time>2019-08-28T08:02:55Z</time>
      </trkpt>
      <trkpt lat="44.26943" lon="2.00225">
        <ele>242.783</ele>
        <time>2019-08-28T08:03:03Z</time>
      </trkpt>
      <trkpt lat="44.269" lon="2.00222">
        <ele>241.466</ele>
        <time>2019-08-28T08:03:08Z</time>
      </trkpt>
      <trkpt lat="44.26852" lon="2.00232">
        <ele>239.847</ele>
        <time>2019-08-28T08:03:15Z</time>
      </trkpt>
      <trkpt lat="44.26815" lon="2.00243">
        <ele>238.61</ele>
        <time>2019-08-28T08:03:21Z</time>
      </trkpt>
      <trkpt lat="44.26784" lon="2.00251">
        <ele>236.42</ele>
        <time>2019-08-28T08:03:27Z</time>
      </trkpt>
      <trkpt lat="44.26694" lon="2.00321">
        <ele>234.14</ele>
        <time>2019-08-28T08:03:44Z</time>
      </trkpt>
      <trkpt lat="44.26665" lon="2.00306">
        <ele>235.996</ele>
        <time>2019-08-28T08:03:50Z</time>
      </trkpt>
      <trkpt lat="44.26641" lon="2.0018">
        <ele>238.733</ele>
        <time>2019-08-28T08:04:09Z</time>
      </trkpt>
      <trkpt lat="44.26651" lon="2.00133">
        <ele>238.735</ele>
        <time>2019-08-28T08:04:15Z</time>
      </trkpt>
      <trkpt lat="44.26661" lon="2.0009">
        <ele>236.573</ele>
        <time>2019-08-28T08:04:20Z</time>
      </trkpt>
      <trkpt lat="44.26673" lon="2.00045">
        <ele>236.693</ele>
        <time>2019-08-28T08:04:25Z</time>
      </trkpt>
      <trkpt lat="44.26691" lon="2.00012">
        <ele>238.844</ele>
        <time>2019-08-28T08:04:30Z</time>
      </trkpt>
      <trkpt lat="44.2671" lon="1.9998">
        <ele>238.757</ele>
        <time>2019-08-28T08:04:36Z</time>
      </trkpt>
      <trkpt lat="44.26759" lon="1.99878">
        <ele>237.15</ele>
        <time>2019-08-28T08:04:51Z</time>
      </trkpt>
      <trkpt lat="44.26808" lon="1.99887">
        <ele>237.47</ele>
        <time>2019-08-28T08:04:59Z</time>
      </trkpt>
      <trkpt lat="44.26903" lon="1.99921">
        <ele>235.424</ele>
        <time>2019-08-28T08:05:16Z</time>
      </trkpt>
      <trkpt lat="44.26932" lon="1.99931">
        <ele>236.155</ele>
        <time>2019-08-28T08:05:21Z</time>
      </trkpt>
      <trkpt lat="44.2697" lon="1.99914">
        <ele>237.176</ele>
        <time>2019-08-28T08:05:29Z</time>
      </trkpt>
      <trkpt lat="44.27012" lon="1.99885">
        <ele>236.701</ele>
        <time>2019-08-28T08:05:37Z</time>
      </trkpt>
      <trkpt lat="44.27042" lon="1.99874">
        <ele>237.616</ele>
        <time>2019-08-28T08:05:43Z</time>
      </trkpt>
      <trkpt lat="44.27052" lon="1.99879">
        <ele>238.356</ele>
        <time>2019-08-28T08:07:28Z</time>
      </trkpt>
      <trkpt lat="44.27059" lon="1.99849">
        <ele>238.664</ele>
        <time>2019-08-28T08:07:34Z</time>
      </trkpt>
      <trkpt lat="44.27054" lon="1.99777">
        <ele>239.626</ele>
        <time>2019-08-28T08:07:43Z</time>
      </trkpt>
      <trkpt lat="44.27051" lon="1.99737">
        <ele>240.039</ele>
        <time>2019-08-28T08:07:48Z</time>
      </trkpt>
      <trkpt lat="44.27046" lon="1.99674">
        <ele>242.067</ele>
        <time>2019-08-28T08:07:56Z</time>
      </trkpt>
      <trkpt lat="44.27042" lon="1.99612">
        <ele>242.987</ele>
        <time>2019-08-28T08:08:05Z</time>
      </trkpt>
      <trkpt lat="44.27063" lon="1.99598">
        <ele>244.386</ele>
        <time>2019-08-28T08:08:11Z</time>
      </trkpt>
      <trkpt lat="44.27233" lon="1.99531">
        <ele>269.057</ele>
        <time>2019-08-28T08:08:53Z</time>
      </trkpt>
      <trkpt lat="44.27291" lon="1.99508">
        <ele>270.034</ele>
        <time>2019-08-28T08:09:04Z</time>
      </trkpt>
      <trkpt lat="44.27322" lon="1.99495">
        <ele>271.491</ele>
        <time>2019-08-28T08:09:10Z</time>
      </trkpt>
      <trkpt lat="44.27399" lon="1.99523">
        <ele>273.212</ele>
        <time>2019-08-28T08:09:26Z</time>
      </trkpt>
      <trkpt lat="44.27418" lon="1.99515">
        <ele>274.169</ele>
        <time>2019-08-28T08:09:32Z</time>
      </trkpt>
      <trkpt lat="44.27437" lon="1.99506">
        <ele>274.732</ele>
        <time>2019-08-28T08:09:38Z</time>
      </trkpt>
      <trkpt lat="44.27455" lon="1.99495">
        <ele>276.2</ele>
        <time>2019-08-28T08:09:43Z</time>
      </trkpt>
      <trkpt lat="44.27473" lon="1.99477">
        <ele>278.325</ele>
        <time>2019-08-28T08:09:48Z</time>
      </trkpt>
      <trkpt lat="44.27506" lon="1.99463">
        <ele>280.171</ele>
        <time>2019-08-28T08:09:55Z</time>
      </trkpt>
      <trkpt lat="44.27539" lon="1.99449">
        <ele>282.337</ele>
        <time>2019-08-28T08:10:02Z</time>
      </trkpt>
      <trkpt lat="44.27586" lon="1.99423">
        <ele>286.528</ele>
        <time>2019-08-28T08:10:12Z</time>
      </trkpt>
      <trkpt lat="44.27611" lon="1.99399">
        <ele>288.875</ele>
        <time>2019-08-28T08:10:18Z</time>
      </trkpt>
      <trkpt lat="44.2763" lon="1.99373">
        <ele>291.384</ele>
        <time>2019-08-28T08:10:24Z</time>
      </trkpt>
      <trkpt lat="44.27645" lon="1.99344">
        <ele>293.966</ele>
        <time>2019-08-28T08:10:30Z</time>
      </trkpt>
      <trkpt lat="44.27683" lon="1.99282">
        <ele>300.431</ele>
        <time>2019-08-28T08:10:43Z</time>
      </trkpt>
      <trkpt lat="44.2772" lon="1.99208">
        <ele>304.978</ele>
        <time>2019-08-28T08:12:13Z</time>
      </trkpt>
      <trkpt lat="44.2805" lon="1.99036">
        <ele>320.454</ele>
        <time>2019-08-28T08:13:20Z</time>
      </trkpt>
      <trkpt lat="44.28113" lon="1.99011">
        <ele>325.893</ele>
        <time>2019-08-28T08:13:33Z</time>
      </trkpt>
      <trkpt lat="44.28134" lon="1.99003">
        <ele>327.686</ele>
        <time>2019-08-28T08:13:38Z</time>
      </trkpt>
      <trkpt lat="44.28182" lon="1.98996">
        <ele>333.542</ele>
        <time>2019-08-28T08:13:51Z</time>
      </trkpt>
      <trkpt lat="44.28252" lon="1.98998">
        <ele>345.641</ele>
        <time>2019-08-28T08:14:09Z</time>
      </trkpt>
      <trkpt lat="44.28291" lon="1.99001">
        <ele>349.051</ele>
        <time>2019-08-28T08:14:17Z</time>
      </trkpt>
      <trkpt lat="44.2832" lon="1.99001">
        <ele>351.453</ele>
        <time>2019-08-28T08:14:22Z</time>
      </trkpt>
      <trkpt lat="44.28358" lon="1.98997">
        <ele>351.492</ele>
        <time>2019-08-28T08:14:28Z</time>
      </trkpt>
      <trkpt lat="44.28396" lon="1.99004">
        <ele>351.419</ele>
        <time>2019-08-28T08:14:34Z</time>
      </trkpt>
      <trkpt lat="44.28431" lon="1.99011">
        <ele>351.85</ele>
        <time>2019-08-28T08:14:40Z</time>
      </trkpt>
      <trkpt lat="44.28459" lon="1.9902">
        <ele>352.163</ele>
        <time>2019-08-28T08:14:45Z</time>
      </trkpt>
      <trkpt lat="44.28492" lon="1.99008">
        <ele>351.989</ele>
        <time>2019-08-28T08:14:51Z</time>
      </trkpt>
      <trkpt lat="44.28519" lon="1.98977">
        <ele>352.521</ele>
        <time>2019-08-28T08:14:57Z</time>
      </trkpt>
      <trkpt lat="44.2855" lon="1.98947">
        <ele>350.608</ele>
        <time>2019-08-28T08:15:03Z</time>
      </trkpt>
      <trkpt lat="44.28581" lon="1.98908">
        <ele>348.784</ele>
        <time>2019-08-28T08:15:09Z</time>
      </trkpt>
      <trkpt lat="44.28603" lon="1.98885">
        <ele>347.444</ele>
        <time>2019-08-28T08:15:15Z</time>
      </trkpt>
      <trkpt lat="44.2862" lon="1.98868">
        <ele>345.854</ele>
        <time>2019-08-28T08:15:20Z</time>
      </trkpt>
      <trkpt lat="44.28636" lon="1.98854">
        <ele>343.137</ele>
        <time>2019-08-28T08:15:26Z</time>
      </trkpt>
      <trkpt lat="44.28645" lon="1.98848">
        <ele>341.159</ele>
        <time>2019-08-28T08:16:16Z</time>
      </trkpt>
      <trkpt lat="44.28665" lon="1.98834">
        <ele>340.222</ele>
        <time>2019-08-28T08:16:21Z</time>
      </trkpt>
      <trkpt lat="44.28687" lon="1.98815">
        <ele>339.656</ele>
        <time>2019-08-28T08:16:27Z</time>
      </trkpt>
      <trkpt lat="44.28709" lon="1.98794">
        <ele>337.933</ele>
        <time>2019-08-28T08:16:33Z</time>
      </trkpt>
      <trkpt lat="44.28728" lon="1.98783">
        <ele>335.463</ele>
        <time>2019-08-28T08:16:39Z</time>
      </trkpt>
      <trkpt lat="44.2877" lon="1.98768">
        <ele>330.908</ele>
        <time>2019-08-28T08:16:51Z</time>
      </trkpt>
      <trkpt lat="44.28805" lon="1.98759">
        <ele>331.085</ele>
        <time>2019-08-28T08:17:03Z</time>
      </trkpt>
      <trkpt lat="44.28824" lon="1.9876">
        <ele>332.02</ele>
        <time>2019-08-28T08:17:08Z</time>
      </trkpt>
      <trkpt lat="44.28843" lon="1.98755">
        <ele>332.639</ele>
        <time>2019-08-28T08:17:14Z</time>
      </trkpt>
      <trkpt lat="44.28857" lon="1.9874">
        <ele>333.495</ele>
        <time>2019-08-28T08:17:19Z</time>
      </trkpt>
      <trkpt lat="44.28869" lon="1.98723">
        <ele>333.907</ele>
        <time>2019-08-28T08:17:24Z</time>
      </trkpt>
      <trkpt lat="44.28884" lon="1.98703">
        <ele>334.673</ele>
        <time>2019-08-28T08:17:30Z</time>
      </trkpt>
      <trkpt lat="44.28898" lon="1.98682">
        <ele>336.78</ele>
        <time>2019-08-28T08:17:36Z</time>
      </trkpt>
      <trkpt lat="44.28912" lon="1.98664">
        <ele>338.732</ele>
        <time>2019-08-28T08:17:42Z</time>
      </trkpt>
      <trkpt lat="44.28926" lon="1.98654">
        <ele>341.482</ele>
        <time>2019-08-28T08:17:47Z</time>
      </trkpt>
      <trkpt lat="44.28945" lon="1.98642">
        <ele>345.012</ele>
        <time>2019-08-28T08:17:53Z</time>
      </trkpt>
      <trkpt lat="44.28967" lon="1.98629">
        <ele>347.558</ele>
        <time>2019-08-28T08:17:59Z</time>
      </trkpt>
      <trkpt lat="44.28993" lon="1.98613">
        <ele>349.751</ele>
        <time>2019-08-28T08:18:05Z</time>
      </trkpt>
      <trkpt lat="44.29021" lon="1.98596">
        <ele>351.598</ele>
        <time>2019-08-28T08:18:11Z</time>
      </trkpt>
      <trkpt lat="44.2905" lon="1.98577">
        <ele>352.671</ele>
        <time>2019-08-28T08:18:17Z</time>
      </trkpt>
      <trkpt lat="44.29076" lon="1.9856">
        <ele>354.317</ele>
        <time>2019-08-28T08:18:23Z</time>
      </trkpt>
      <trkpt lat="44.29094" lon="1.98548">
        <ele>355.194</ele>
        <time>2019-08-28T08:18:28Z</time>
      </trkpt>
      <trkpt lat="44.29114" lon="1.98535">
        <ele>356.629</ele>
        <time>2019-08-28T08:18:33Z</time>
      </trkpt>
      <trkpt lat="44.29125" lon="1.9853">
        <ele>357.56</ele>
        <time>2019-08-28T08:19:00Z</time>
      </trkpt>
      <trkpt lat="44.29134" lon="1.98544">
        <ele>358.169</ele>
        <time>2019-08-28T08:19:05Z</time>
      </trkpt>
      <trkpt lat="44.29147" lon="1.98562">
        <ele>358.255</ele>
        <time>2019-08-28T08:19:10Z</time>
      </trkpt>
      <trkpt lat="44.29167" lon="1.98578">
        <ele>357.646</ele>
        <time>2019-08-28T08:19:16Z</time>
      </trkpt>
      <trkpt lat="44.2919" lon="1.98585">
        <ele>357.75</ele>
        <time>2019-08-28T08:19:21Z</time>
      </trkpt>
      <trkpt lat="44.29222" lon="1.98596">
        <ele>356.275</ele>
        <time>2019-08-28T08:19:27Z</time>
      </trkpt>
      <trkpt lat="44.29241" lon="1.98598">
        <ele>355.808</ele>
        <time>2019-08-28T08:19:32Z</time>
      </trkpt>
      <trkpt lat="44.29251" lon="1.98592">
        <ele>354.3</ele>
        <time>2019-08-28T08:19:38Z</time>
      </trkpt>
      <trkpt lat="44.29268" lon="1.98578">
        <ele>353.306</ele>
        <time>2019-08-28T08:19:44Z</time>
      </trkpt>
      <trkpt lat="44.29288" lon="1.98576">
        <ele>351.569</ele>
        <time>2019-08-28T08:19:50Z</time>
      </trkpt>
      <trkpt lat="44.29307" lon="1.98581">
        <ele>349.203</ele>
        <time>2019-08-28T08:19:56Z</time>
      </trkpt>
      <trkpt lat="44.29325" lon="1.98587">
        <ele>348.518</ele>
        <time>2019-08-28T08:20:01Z</time>
      </trkpt>
      <trkpt lat="44.2935" lon="1.98585">
        <ele>345.108</ele>
        <time>2019-08-28T08:20:07Z</time>
      </trkpt>
      <trkpt lat="44.29366" lon="1.9858">
        <ele>342.999</ele>
        <time>2019-08-28T08:20:12Z</time>
      </trkpt>
      <trkpt lat="44.2938" lon="1.98596">
        <ele>340.44</ele>
        <time>2019-08-28T08:20:18Z</time>
      </trkpt>
      <trkpt lat="44.29401" lon="1.98606">
        <ele>339.343</ele>
        <time>2019-08-28T08:20:25Z</time>
      </trkpt>
      <trkpt lat="44.29415" lon="1.9861">
        <ele>339.58</ele>
        <time>2019-08-28T08:20:32Z</time>
      </trkpt>
      <trkpt lat="44.29514" lon="1.98701">
        <ele>338.853</ele>
        <time>2019-08-28T08:21:22Z</time>
      </trkpt>
      <trkpt lat="44.29531" lon="1.98712">
        <ele>338.009</ele>
        <time>2019-08-28T08:21:36Z</time>
      </trkpt>
      <trkpt lat="44.29676" lon="1.98699">
        <ele>349.834</ele>
        <time>2019-08-28T08:22:40Z</time>
      </trkpt>
      <trkpt lat="44.2969" lon="1.987">
        <ele>350.862</ele>
        <time>2019-08-28T08:22:45Z</time>
      </trkpt>
      <trkpt lat="44.29705" lon="1.98707">
        <ele>351.832</ele>
        <time>2019-08-28T08:22:50Z</time>
      </trkpt>
      <trkpt lat="44.29723" lon="1.98703">
        <ele>351.06</ele>
        <time>2019-08-28T08:22:56Z</time>
      </trkpt>
      <trkpt lat="44.29739" lon="1.98696">
        <ele>349.619</ele>
        <time>2019-08-28T08:23:02Z</time>
      </trkpt>
      <trkpt lat="44.29751" lon="1.98687">
        <ele>348.502</ele>
        <time>2019-08-28T08:23:07Z</time>
      </trkpt>
      <trkpt lat="44.29758" lon="1.98678">
        <ele>348.823</ele>
        <time>2019-08-28T08:23:13Z</time>
      </trkpt>
      <trkpt lat="44.29768" lon="1.98673">
        <ele>350.273</ele>
        <time>2019-08-28T08:23:20Z</time>
      </trkpt>
      <trkpt lat="44.29781" lon="1.98665">
        <ele>350.382</ele>
        <time>2019-08-28T08:23:26Z</time>
      </trkpt>
      <trkpt lat="44.29795" lon="1.98658">
        <ele>351.435</ele>
        <time>2019-08-28T08:23:31Z</time>
      </trkpt>
      <trkpt lat="44.29814" lon="1.98647">
        <ele>353.048</ele>
        <time>2019-08-28T08:23:38Z</time>
      </trkpt>
      <trkpt lat="44.29832" lon="1.9864">
        <ele>353.836</ele>
        <time>2019-08-28T08:23:44Z</time>
      </trkpt>
      <trkpt lat="44.29847" lon="1.98631">
        <ele>354.676</ele>
        <time>2019-08-28T08:23:50Z</time>
      </trkpt>
      <trkpt lat="44.29865" lon="1.98621">
        <ele>355.114</ele>
        <time>2019-08-28T08:23:56Z</time>
      </trkpt>
      <trkpt lat="44.29887" lon="1.98609">
        <ele>354.39</ele>
        <time>2019-08-28T08:24:02Z</time>
      </trkpt>
      <trkpt lat="44.29904" lon="1.98595">
        <ele>354.733</ele>
        <time>2019-08-28T08:24:07Z</time>
      </trkpt>
      <trkpt lat="44.29925" lon="1.98586">
        <ele>355.316</ele>
        <time>2019-08-28T08:24:26Z</time>
      </trkpt>
      <trkpt lat="44.29936" lon="1.98583">
        <ele>354.939</ele>
        <time>2019-08-28T08:24:33Z</time>
      </trkpt>
      <trkpt lat="44.29946" lon="1.98582">
        <ele>354.521</ele>
        <time>2019-08-28T08:24:38Z</time>
      </trkpt>
      <trkpt lat="44.29955" lon="1.98585">
        <ele>354.218</ele>
        <time>2019-08-28T08:24:45Z</time>
      </trkpt>
      <trkpt lat="44.29965" lon="1.98581">
        <ele>355.027</ele>
        <time>2019-08-28T08:25:41Z</time>
      </trkpt>
      <trkpt lat="44.29979" lon="1.98571">
        <ele>355.105</ele>
        <time>2019-08-28T08:25:47Z</time>
      </trkpt>
      <trkpt lat="44.2999" lon="1.9856">
        <ele>354.424</ele>
        <time>2019-08-28T08:25:52Z</time>
      </trkpt>
      <trkpt lat="44.30002" lon="1.98547">
        <ele>355.571</ele>
        <time>2019-08-28T08:25:57Z</time>
      </trkpt>
      <trkpt lat="44.3001" lon="1.98536">
        <ele>357.918</ele>
        <time>2019-08-28T08:26:03Z</time>
      </trkpt>
      <trkpt lat="44.29999" lon="1.98525">
        <ele>360.468</ele>
        <time>2019-08-28T08:26:08Z</time>
      </trkpt>
      <trkpt lat="44.29989" lon="1.98515">
        <ele>362.056</ele>
        <time>2019-08-28T08:26:14Z</time>
      </trkpt>
      <trkpt lat="44.29981" lon="1.98505">
        <ele>363.756</ele>
        <time>2019-08-28T08:26:19Z</time>
      </trkpt>
      <trkpt lat="44.29965" lon="1.98492">
        <ele>366.676</ele>
        <time>2019-08-28T08:26:25Z</time>
      </trkpt>
      <trkpt lat="44.29951" lon="1.98482">
        <ele>367.57</ele>
        <time>2019-08-28T08:26:30Z</time>
      </trkpt>
      <trkpt lat="44.29934" lon="1.98474">
        <ele>368.373</ele>
        <time>2019-08-28T08:26:36Z</time>
      </trkpt>
      <trkpt lat="44.29916" lon="1.98468">
        <ele>370.532</ele>
        <time>2019-08-28T08:26:42Z</time>
      </trkpt>
      <trkpt lat="44.29899" lon="1.98457">
        <ele>372.494</ele>
        <time>2019-08-28T08:26:48Z</time>
      </trkpt>
      <trkpt lat="44.29819" lon="1.98408">
        <ele>380.96</ele>
        <time>2019-08-28T08:27:49Z</time>
      </trkpt>
      <trkpt lat="44.29807" lon="1.98387">
        <ele>382.633</ele>
        <time>2019-08-28T08:27:56Z</time>
      </trkpt>
      <trkpt lat="44.29799" lon="1.98368">
        <ele>383.664</ele>
        <time>2019-08-28T08:28:02Z</time>
      </trkpt>
      <trkpt lat="44.29792" lon="1.98348">
        <ele>385.992</ele>
        <time>2019-08-28T08:28:07Z</time>
      </trkpt>
      <trkpt lat="44.29785" lon="1.98323">
        <ele>385.951</ele>
        <time>2019-08-28T08:28:14Z</time>
      </trkpt>
      <trkpt lat="44.29778" lon="1.98292">
        <ele>386.312</ele>
        <time>2019-08-28T08:28:20Z</time>
      </trkpt>
      <trkpt lat="44.29775" lon="1.98259">
        <ele>385.699</ele>
        <time>2019-08-28T08:28:26Z</time>
      </trkpt>
      <trkpt lat="44.29772" lon="1.98233">
        <ele>384.317</ele>
        <time>2019-08-28T08:28:32Z</time>
      </trkpt>
      <trkpt lat="44.29768" lon="1.98205">
        <ele>383.242</ele>
        <time>2019-08-28T08:28:37Z</time>
      </trkpt>
      <trkpt lat="44.29787" lon="1.98141">
        <ele>379.153</ele>
        <time>2019-08-28T08:29:01Z</time>
      </trkpt>
      <trkpt lat="44.29805" lon="1.98137">
        <ele>377.843</ele>
        <time>2019-08-28T08:29:07Z</time>
      </trkpt>
      <trkpt lat="44.29819" lon="1.98135">
        <ele>377.855</ele>
        <time>2019-08-28T08:29:12Z</time>
      </trkpt>
      <trkpt lat="44.29834" lon="1.98132">
        <ele>378.558</ele>
        <time>2019-08-28T08:29:17Z</time>
      </trkpt>
      <trkpt lat="44.29848" lon="1.9813">
        <ele>379.307</ele>
        <time>2019-08-28T08:29:22Z</time>
      </trkpt>
      <trkpt lat="44.29861" lon="1.98128">
        <ele>380.38</ele>
        <time>2019-08-28T08:29:27Z</time>
      </trkpt>
      <trkpt lat="44.2988" lon="1.98127">
        <ele>381.678</ele>
        <time>2019-08-28T08:29:33Z</time>
      </trkpt>
      <trkpt lat="44.29893" lon="1.98126">
        <ele>383.178</ele>
        <time>2019-08-28T08:29:52Z</time>
      </trkpt>
      <trkpt lat="44.29896" lon="1.98112">
        <ele>384.42</ele>
        <time>2019-08-28T08:30:05Z</time>
      </trkpt>
      <trkpt lat="44.29911" lon="1.98099">
        <ele>386.442</ele>
        <time>2019-08-28T08:30:11Z</time>
      </trkpt>
      <trkpt lat="44.29923" lon="1.98078">
        <ele>388.095</ele>
        <time>2019-08-28T08:30:17Z</time>
      </trkpt>
      <trkpt lat="44.29936" lon="1.98058">
        <ele>390.609</ele>
        <time>2019-08-28T08:30:23Z</time>
      </trkpt>
      <trkpt lat="44.29951" lon="1.98021">
        <ele>391.927</ele>
        <time>2019-08-28T08:30:32Z</time>
      </trkpt>
      <trkpt lat="44.29966" lon="1.98001">
        <ele>391.92</ele>
        <time>2019-08-28T08:30:38Z</time>
      </trkpt>
      <trkpt lat="44.2998" lon="1.97976">
        <ele>393.395</ele>
        <time>2019-08-28T08:30:44Z</time>
      </trkpt>
      <trkpt lat="44.3" lon="1.9797">
        <ele>394.076</ele>
        <time>2019-08-28T08:30:49Z</time>
      </trkpt>
      <trkpt lat="44.30025" lon="1.97967">
        <ele>393.562</ele>
        <time>2019-08-28T08:30:55Z</time>
      </trkpt>
      <trkpt lat="44.30046" lon="1.97962">
        <ele>392.858</ele>
        <time>2019-08-28T08:31:01Z</time>
      </trkpt>
      <trkpt lat="44.30067" lon="1.9796">
        <ele>392.625</ele>
        <time>2019-08-28T08:31:07Z</time>
      </trkpt>
      <trkpt lat="44.30084" lon="1.97946">
        <ele>391.509</ele>
        <time>2019-08-28T08:31:12Z</time>
      </trkpt>
      <trkpt lat="44.30135" lon="1.97914">
        <ele>387.906</ele>
        <time>2019-08-28T08:31:28Z</time>
      </trkpt>
      <trkpt lat="44.30154" lon="1.97918">
        <ele>388.326</ele>
        <time>2019-08-28T08:31:34Z</time>
      </trkpt>
      <trkpt lat="44.30173" lon="1.97922">
        <ele>389.768</ele>
        <time>2019-08-28T08:31:40Z</time>
      </trkpt>
      <trkpt lat="44.30194" lon="1.97925">
        <ele>391.865</ele>
        <time>2019-08-28T08:31:46Z</time>
      </trkpt>
      <trkpt lat="44.3021" lon="1.97931">
        <ele>393.827</ele>
        <time>2019-08-28T08:31:52Z</time>
      </trkpt>
      <trkpt lat="44.30213" lon="1.97945">
        <ele>395.554</ele>
        <time>2019-08-28T08:32:09Z</time>
      </trkpt>
      <trkpt lat="44.30218" lon="1.9797">
        <ele>396.962</ele>
        <time>2019-08-28T08:32:15Z</time>
      </trkpt>
      <trkpt lat="44.30222" lon="1.97997">
        <ele>398.475</ele>
        <time>2019-08-28T08:32:21Z</time>
      </trkpt>
      <trkpt lat="44.30225" lon="1.98022">
        <ele>400.307</ele>
        <time>2019-08-28T08:32:27Z</time>
      </trkpt>
      <trkpt lat="44.30226" lon="1.98043">
        <ele>401.078</ele>
        <time>2019-08-28T08:32:32Z</time>
      </trkpt>
      <trkpt lat="44.30226" lon="1.98072">
        <ele>400.812</ele>
        <time>2019-08-28T08:32:38Z</time>
      </trkpt>
      <trkpt lat="44.30225" lon="1.98097">
        <ele>400.673</ele>
        <time>2019-08-28T08:32:44Z</time>
      </trkpt>
      <trkpt lat="44.3023" lon="1.98116">
        <ele>400.871</ele>
        <time>2019-08-28T08:32:49Z</time>
      </trkpt>
      <trkpt lat="44.30249" lon="1.98124">
        <ele>401.56</ele>
        <time>2019-08-28T08:32:55Z</time>
      </trkpt>
      <trkpt lat="44.30267" lon="1.98134">
        <ele>401.55</ele>
        <time>2019-08-28T08:33:00Z</time>
      </trkpt>
      <trkpt lat="44.30287" lon="1.98145">
        <ele>400.954</ele>
        <time>2019-08-28T08:33:06Z</time>
      </trkpt>
      <trkpt lat="44.30307" lon="1.98156">
        <ele>400.79</ele>
        <time>2019-08-28T08:33:12Z</time>
      </trkpt>
      <trkpt lat="44.30328" lon="1.98164">
        <ele>400.347</ele>
        <time>2019-08-28T08:33:18Z</time>
      </trkpt>
      <trkpt lat="44.30347" lon="1.98169">
        <ele>399.981</ele>
        <time>2019-08-28T08:33:24Z</time>
      </trkpt>
      <trkpt lat="44.30365" lon="1.98172">
        <ele>399.415</ele>
        <time>2019-08-28T08:33:29Z</time>
      </trkpt>
      <trkpt lat="44.30388" lon="1.98175">
        <ele>397.9</ele>
        <time>2019-08-28T08:33:35Z</time>
      </trkpt>
      <trkpt lat="44.30407" lon="1.9818">
        <ele>397.542</ele>
        <time>2019-08-28T08:33:40Z</time>
      </trkpt>
      <trkpt lat="44.30431" lon="1.98184">
        <ele>397.521</ele>
        <time>2019-08-28T08:33:46Z</time>
      </trkpt>
      <trkpt lat="44.30452" lon="1.9819">
        <ele>397.356</ele>
        <time>2019-08-28T08:33:52Z</time>
      </trkpt>
      <trkpt lat="44.30471" lon="1.98195">
        <ele>396.891</ele>
        <time>2019-08-28T08:33:57Z</time>
      </trkpt>
      <trkpt lat="44.30492" lon="1.98202">
        <ele>397.402</ele>
        <time>2019-08-28T08:34:03Z</time>
      </trkpt>
      <trkpt lat="44.3051" lon="1.98208">
        <ele>397.826</ele>
        <time>2019-08-28T08:34:08Z</time>
      </trkpt>
      <trkpt lat="44.30531" lon="1.98211">
        <ele>398.378</ele>
        <time>2019-08-28T08:34:14Z</time>
      </trkpt>
      <trkpt lat="44.30557" lon="1.98213">
        <ele>398.393</ele>
        <time>2019-08-28T08:34:20Z</time>
      </trkpt>
      <trkpt lat="44.30581" lon="1.98213">
        <ele>397.432</ele>
        <time>2019-08-28T08:34:26Z</time>
      </trkpt>
      <trkpt lat="44.306" lon="1.98215">
        <ele>397.655</ele>
        <time>2019-08-28T08:34:31Z</time>
      </trkpt>
      <trkpt lat="44.30622" lon="1.9822">
        <ele>398.587</ele>
        <time>2019-08-28T08:34:37Z</time>
      </trkpt>
      <trkpt lat="44.30639" lon="1.98219">
        <ele>398.894</ele>
        <time>2019-08-28T08:34:42Z</time>
      </trkpt>
      <trkpt lat="44.30659" lon="1.9822">
        <ele>399.632</ele>
        <time>2019-08-28T08:34:48Z</time>
      </trkpt>
      <trkpt lat="44.30675" lon="1.98225">
        <ele>400.096</ele>
        <time>2019-08-28T08:34:53Z</time>
      </trkpt>
      <trkpt lat="44.30693" lon="1.98236">
        <ele>399.807</ele>
        <time>2019-08-28T08:34:59Z</time>
      </trkpt>
      <trkpt lat="44.30708" lon="1.98246">
        <ele>399.676</ele>
        <time>2019-08-28T08:35:04Z</time>
      </trkpt>
      <trkpt lat="44.30721" lon="1.98256">
        <ele>399.45</ele>
        <time>2019-08-28T08:35:09Z</time>
      </trkpt>
      <trkpt lat="44.30738" lon="1.9827">
        <ele>399.823</ele>
        <time>2019-08-28T08:35:15Z</time>
      </trkpt>
      <trkpt lat="44.30754" lon="1.98281">
        <ele>401.166</ele>
        <time>2019-08-28T08:35:20Z</time>
      </trkpt>
      <trkpt lat="44.30775" lon="1.9829">
        <ele>403.32</ele>
        <time>2019-08-28T08:35:26Z</time>
      </trkpt>
      <trkpt lat="44.30794" lon="1.98298">
        <ele>405.588</ele>
        <time>2019-08-28T08:35:32Z</time>
      </trkpt>
      <trkpt lat="44.30813" lon="1.98304">
        <ele>407.439</ele>
        <time>2019-08-28T08:35:37Z</time>
      </trkpt>
      <trkpt lat="44.30838" lon="1.98316">
        <ele>408.937</ele>
        <time>2019-08-28T08:35:43Z</time>
      </trkpt>
      <trkpt lat="44.30861" lon="1.9833">
        <ele>408.625</ele>
        <time>2019-08-28T08:35:49Z</time>
      </trkpt>
      <trkpt lat="44.30883" lon="1.9834">
        <ele>407.73</ele>
        <time>2019-08-28T08:35:54Z</time>
      </trkpt>
      <trkpt lat="44.3091" lon="1.98343">
        <ele>408.069</ele>
        <time>2019-08-28T08:36:00Z</time>
      </trkpt>
      <trkpt lat="44.30928" lon="1.98341">
        <ele>407.587</ele>
        <time>2019-08-28T08:36:05Z</time>
      </trkpt>
      <trkpt lat="44.30938" lon="1.98345">
        <ele>407.161</ele>
        <time>2019-08-28T08:36:11Z</time>
      </trkpt>
      <trkpt lat="44.30948" lon="1.98344">
        <ele>406.89</ele>
        <time>2019-08-28T08:41:21Z</time>
      </trkpt>
      <trkpt lat="44.30964" lon="1.98349">
        <ele>407.24</ele>
        <time>2019-08-28T08:41:27Z</time>
      </trkpt>
      <trkpt lat="44.30978" lon="1.9835">
        <ele>407.846</ele>
        <time>2019-08-28T08:41:33Z</time>
      </trkpt>
      <trkpt lat="44.30987" lon="1.98352">
        <ele>408.106</ele>
        <time>2019-08-28T08:41:38Z</time>
      </trkpt>
      <trkpt lat="44.30997" lon="1.98357">
        <ele>408.068</ele>
        <time>2019-08-28T08:41:44Z</time>
      </trkpt>
      <trkpt lat="44.31008" lon="1.98368">
        <ele>407.691</ele>
        <time>2019-08-28T08:41:49Z</time>
      </trkpt>
      <trkpt lat="44.31037" lon="1.98385">
        <ele>406.672</ele>
        <time>2019-08-28T08:41:55Z</time>
      </trkpt>
      <trkpt lat="44.31067" lon="1.98392">
        <ele>406.069</ele>
        <time>2019-08-28T08:42:01Z</time>
      </trkpt>
      <trkpt lat="44.31082" lon="1.98396">
        <ele>404.013</ele>
        <time>2019-08-28T08:42:06Z</time>
      </trkpt>
      <trkpt lat="44.31102" lon="1.98401">
        <ele>402.35</ele>
        <time>2019-08-28T08:42:12Z</time>
      </trkpt>
      <trkpt lat="44.31117" lon="1.98401">
        <ele>401.364</ele>
        <time>2019-08-28T08:42:17Z</time>
      </trkpt>
      <trkpt lat="44.31135" lon="1.98401">
        <ele>401.774</ele>
        <time>2019-08-28T08:42:23Z</time>
      </trkpt>
      <trkpt lat="44.3115" lon="1.98409">
        <ele>402.951</ele>
        <time>2019-08-28T08:42:28Z</time>
      </trkpt>
      <trkpt lat="44.31163" lon="1.98422">
        <ele>404.139</ele>
        <time>2019-08-28T08:42:33Z</time>
      </trkpt>
      <trkpt lat="44.31177" lon="1.9844">
        <ele>406.25</ele>
        <time>2019-08-28T08:42:39Z</time>
      </trkpt>
      <trkpt lat="44.31191" lon="1.98453">
        <ele>407.58</ele>
        <time>2019-08-28T08:42:44Z</time>
      </trkpt>
      <trkpt lat="44.31206" lon="1.98466">
        <ele>408.022</ele>
        <time>2019-08-28T08:42:49Z</time>
      </trkpt>
      <trkpt lat="44.31228" lon="1.98483">
        <ele>407.875</ele>
        <time>2019-08-28T08:42:55Z</time>
      </trkpt>
      <trkpt lat="44.31253" lon="1.98495">
        <ele>407.909</ele>
        <time>2019-08-28T08:43:00Z</time>
      </trkpt>
      <trkpt lat="44.31286" lon="1.985">
        <ele>409.633</ele>
        <time>2019-08-28T08:43:05Z</time>
      </trkpt>
      <trkpt lat="44.31318" lon="1.98494">
        <ele>409.443</ele>
        <time>2019-08-28T08:43:10Z</time>
      </trkpt>
      <trkpt lat="44.31351" lon="1.98496">
        <ele>409.003</ele>
        <time>2019-08-28T08:43:16Z</time>
      </trkpt>
      <trkpt lat="44.31382" lon="1.98505">
        <ele>407.143</ele>
        <time>2019-08-28T08:43:22Z</time>
      </trkpt>
      <trkpt lat="44.31413" lon="1.98515">
        <ele>406.818</ele>
        <time>2019-08-28T08:43:28Z</time>
      </trkpt>
      <trkpt lat="44.3144" lon="1.9852">
        <ele>406.711</ele>
        <time>2019-08-28T08:43:33Z</time>
      </trkpt>
      <trkpt lat="44.31472" lon="1.98524">
        <ele>406.938</ele>
        <time>2019-08-28T08:43:39Z</time>
      </trkpt>
      <trkpt lat="44.31508" lon="1.98529">
        <ele>406.204</ele>
        <time>2019-08-28T08:43:45Z</time>
      </trkpt>
      <trkpt lat="44.31542" lon="1.98524">
        <ele>405.063</ele>
        <time>2019-08-28T08:43:50Z</time>
      </trkpt>
      <trkpt lat="44.31584" lon="1.98506">
        <ele>403.69</ele>
        <time>2019-08-28T08:43:56Z</time>
      </trkpt>
      <trkpt lat="44.31623" lon="1.98481">
        <ele>402.782</ele>
        <time>2019-08-28T08:44:02Z</time>
      </trkpt>
      <trkpt lat="44.3166" lon="1.98469">
        <ele>400.285</ele>
        <time>2019-08-28T08:44:08Z</time>
      </trkpt>
      <trkpt lat="44.317" lon="1.98463">
        <ele>396.483</ele>
        <time>2019-08-28T08:44:14Z</time>
      </trkpt>
      <trkpt lat="44.31744" lon="1.98461">
        <ele>392.92</ele>
        <time>2019-08-28T08:44:20Z</time>
      </trkpt>
      <trkpt lat="44.31773" lon="1.98457">
        <ele>390.254</ele>
        <time>2019-08-28T08:44:25Z</time>
      </trkpt>
      <trkpt lat="44.31799" lon="1.98445">
        <ele>388.871</ele>
        <time>2019-08-28T08:44:30Z</time>
      </trkpt>
      <trkpt lat="44.31824" lon="1.98435">
        <ele>388.181</ele>
        <time>2019-08-28T08:44:35Z</time>
      </trkpt>
      <trkpt lat="44.31846" lon="1.98426">
        <ele>387.769</ele>
        <time>2019-08-28T08:44:41Z</time>
      </trkpt>
      <trkpt lat="44.31865" lon="1.98414">
        <ele>387.115</ele>
        <time>2019-08-28T08:44:46Z</time>
      </trkpt>
      <trkpt lat="44.31881" lon="1.98416">
        <ele>385.297</ele>
        <time>2019-08-28T08:44:52Z</time>
      </trkpt>
      <trkpt lat="44.31897" lon="1.98414">
        <ele>383.473</ele>
        <time>2019-08-28T08:44:57Z</time>
      </trkpt>
      <trkpt lat="44.31913" lon="1.98412">
        <ele>383.277</ele>
        <time>2019-08-28T08:45:02Z</time>
      </trkpt>
      <trkpt lat="44.31929" lon="1.98409">
        <ele>383.784</ele>
        <time>2019-08-28T08:45:07Z</time>
      </trkpt>
      <trkpt lat="44.31947" lon="1.98411">
        <ele>384.965</ele>
        <time>2019-08-28T08:45:13Z</time>
      </trkpt>
      <trkpt lat="44.31965" lon="1.9841">
        <ele>387.28</ele>
        <time>2019-08-28T08:45:19Z</time>
      </trkpt>
      <trkpt lat="44.31984" lon="1.98409">
        <ele>389.554</ele>
        <time>2019-08-28T08:45:25Z</time>
      </trkpt>
      <trkpt lat="44.32005" lon="1.98406">
        <ele>391.66</ele>
        <time>2019-08-28T08:45:31Z</time>
      </trkpt>
      <trkpt lat="44.32023" lon="1.98405">
        <ele>393.217</ele>
        <time>2019-08-28T08:45:36Z</time>
      </trkpt>
      <trkpt lat="44.32046" lon="1.98405">
        <ele>395.715</ele>
        <time>2019-08-28T08:45:42Z</time>
      </trkpt>
      <trkpt lat="44.32069" lon="1.98401">
        <ele>397.606</ele>
        <time>2019-08-28T08:45:48Z</time>
      </trkpt>
      <trkpt lat="44.32093" lon="1.98403">
        <ele>399.64</ele>
        <time>2019-08-28T08:45:54Z</time>
      </trkpt>
      <trkpt lat="44.32114" lon="1.98408">
        <ele>399.549</ele>
        <time>2019-08-28T08:45:59Z</time>
      </trkpt>
      <trkpt lat="44.32135" lon="1.98411">
        <ele>399.875</ele>
        <time>2019-08-28T08:46:04Z</time>
      </trkpt>
      <trkpt lat="44.32154" lon="1.98413">
        <ele>400.314</ele>
        <time>2019-08-28T08:46:10Z</time>
      </trkpt>
      <trkpt lat="44.32174" lon="1.98413">
        <ele>400.948</ele>
        <time>2019-08-28T08:46:16Z</time>
      </trkpt>
      <trkpt lat="44.3219" lon="1.98416">
        <ele>401.305</ele>
        <time>2019-08-28T08:46:21Z</time>
      </trkpt>
      <trkpt lat="44.322" lon="1.98416">
        <ele>401.596</ele>
        <time>2019-08-28T08:46:57Z</time>
      </trkpt>
      <trkpt lat="44.32216" lon="1.98414">
        <ele>400.905</ele>
        <time>2019-08-28T08:47:03Z</time>
      </trkpt>
      <trkpt lat="44.32238" lon="1.9841">
        <ele>400.854</ele>
        <time>2019-08-28T08:47:08Z</time>
      </trkpt>
      <trkpt lat="44.32255" lon="1.98407">
        <ele>401.263</ele>
        <time>2019-08-28T08:47:14Z</time>
      </trkpt>
      <trkpt lat="44.32275" lon="1.98399">
        <ele>402.022</ele>
        <time>2019-08-28T08:47:20Z</time>
      </trkpt>
      <trkpt lat="44.32295" lon="1.98392">
        <ele>402.831</ele>
        <time>2019-08-28T08:47:26Z</time>
      </trkpt>
      <trkpt lat="44.3232" lon="1.98388">
        <ele>403.183</ele>
        <time>2019-08-28T08:47:32Z</time>
      </trkpt>
      <trkpt lat="44.32344" lon="1.98383">
        <ele>401.614</ele>
        <time>2019-08-28T08:47:38Z</time>
      </trkpt>
      <trkpt lat="44.32362" lon="1.98382">
        <ele>402.986</ele>
        <time>2019-08-28T08:47:43Z</time>
      </trkpt>
      <trkpt lat="44.32385" lon="1.98376">
        <ele>404.54</ele>
        <time>2019-08-28T08:47:49Z</time>
      </trkpt>
      <trkpt lat="44.32403" lon="1.98371">
        <ele>404.348</ele>
        <time>2019-08-28T08:47:55Z</time>
      </trkpt>
      <trkpt lat="44.32416" lon="1.98365">
        <ele>404.487</ele>
        <time>2019-08-28T08:48:01Z</time>
      </trkpt>
      <trkpt lat="44.32429" lon="1.98361">
        <ele>404.071</ele>
        <time>2019-08-28T08:48:06Z</time>
      </trkpt>
      <trkpt lat="44.32447" lon="1.98356">
        <ele>403.406</ele>
        <time>2019-08-28T08:48:12Z</time>
      </trkpt>
      <trkpt lat="44.32475" lon="1.98354">
        <ele>402.08</ele>
        <time>2019-08-28T08:48:18Z</time>
      </trkpt>
      <trkpt lat="44.32487" lon="1.98348">
        <ele>401.303</ele>
        <time>2019-08-28T08:48:24Z</time>
      </trkpt>
      <trkpt lat="44.32496" lon="1.9835">
        <ele>399.744</ele>
        <time>2019-08-28T08:52:51Z</time>
      </trkpt>
      <trkpt lat="44.32513" lon="1.98362">
        <ele>397.895</ele>
        <time>2019-08-28T08:52:57Z</time>
      </trkpt>
      <trkpt lat="44.3253" lon="1.98372">
        <ele>396.728</ele>
        <time>2019-08-28T08:53:02Z</time>
      </trkpt>
      <trkpt lat="44.3255" lon="1.98386">
        <ele>395.401</ele>
        <time>2019-08-28T08:53:07Z</time>
      </trkpt>
      <trkpt lat="44.32573" lon="1.98403">
        <ele>394.323</ele>
        <time>2019-08-28T08:53:13Z</time>
      </trkpt>
      <trkpt lat="44.32592" lon="1.98419">
        <ele>393.455</ele>
        <time>2019-08-28T08:53:18Z</time>
      </trkpt>
      <trkpt lat="44.32616" lon="1.98442">
        <ele>390.955</ele>
        <time>2019-08-28T08:53:24Z</time>
      </trkpt>
      <trkpt lat="44.32645" lon="1.98462">
        <ele>388.752</ele>
        <time>2019-08-28T08:53:30Z</time>
      </trkpt>
      <trkpt lat="44.32681" lon="1.98484">
        <ele>386.049</ele>
        <time>2019-08-28T08:53:36Z</time>
      </trkpt>
      <trkpt lat="44.3271" lon="1.98497">
        <ele>382.4</ele>
        <time>2019-08-28T08:53:42Z</time>
      </trkpt>
      <trkpt lat="44.3273" lon="1.9851">
        <ele>380.025</ele>
        <time>2019-08-28T08:53:47Z</time>
      </trkpt>
      <trkpt lat="44.32754" lon="1.9853">
        <ele>379.333</ele>
        <time>2019-08-28T08:53:52Z</time>
      </trkpt>
      <trkpt lat="44.32776" lon="1.98552">
        <ele>377.127</ele>
        <time>2019-08-28T08:53:58Z</time>
      </trkpt>
      <trkpt lat="44.32788" lon="1.98565">
        <ele>375.333</ele>
        <time>2019-08-28T08:54:03Z</time>
      </trkpt>
      <trkpt lat="44.32804" lon="1.9858">
        <ele>374.239</ele>
        <time>2019-08-28T08:54:08Z</time>
      </trkpt>
      <trkpt lat="44.32816" lon="1.98599">
        <ele>372.946</ele>
        <time>2019-08-28T08:54:13Z</time>
      </trkpt>
      <trkpt lat="44.32829" lon="1.98614">
        <ele>371.162</ele>
        <time>2019-08-28T08:54:19Z</time>
      </trkpt>
      <trkpt lat="44.32842" lon="1.98632">
        <ele>369.51</ele>
        <time>2019-08-28T08:54:24Z</time>
      </trkpt>
      <trkpt lat="44.32863" lon="1.98657">
        <ele>365.794</ele>
        <time>2019-08-28T08:54:30Z</time>
      </trkpt>
      <trkpt lat="44.32883" lon="1.98682">
        <ele>363.719</ele>
        <time>2019-08-28T08:54:36Z</time>
      </trkpt>
      <trkpt lat="44.32893" lon="1.98703">
        <ele>361.731</ele>
        <time>2019-08-28T08:54:41Z</time>
      </trkpt>
      <trkpt lat="44.32897" lon="1.98721">
        <ele>361</ele>
        <time>2019-08-28T08:54:47Z</time>
      </trkpt>
      <trkpt lat="44.32893" lon="1.98746">
        <ele>359.947</ele>
        <time>2019-08-28T08:54:52Z</time>
      </trkpt>
      <trkpt lat="44.32898" lon="1.98771">
        <ele>359.315</ele>
        <time>2019-08-28T08:54:57Z</time>
      </trkpt>
      <trkpt lat="44.32907" lon="1.98803">
        <ele>358.813</ele>
        <time>2019-08-28T08:55:03Z</time>
      </trkpt>
      <trkpt lat="44.32914" lon="1.98832">
        <ele>358.409</ele>
        <time>2019-08-28T08:55:08Z</time>
      </trkpt>
      <trkpt lat="44.32925" lon="1.98841">
        <ele>358.344</ele>
        <time>2019-08-28T08:55:13Z</time>
      </trkpt>
      <trkpt lat="44.32934" lon="1.98819">
        <ele>357.974</ele>
        <time>2019-08-28T08:55:19Z</time>
      </trkpt>
      <trkpt lat="44.32945" lon="1.98797">
        <ele>358.056</ele>
        <time>2019-08-28T08:55:25Z</time>
      </trkpt>
      <trkpt lat="44.32962" lon="1.98781">
        <ele>360.637</ele>
        <time>2019-08-28T08:55:31Z</time>
      </trkpt>
      <trkpt lat="44.32978" lon="1.98771">
        <ele>362.178</ele>
        <time>2019-08-28T08:55:37Z</time>
      </trkpt>
      <trkpt lat="44.32997" lon="1.98764">
        <ele>363.016</ele>
        <time>2019-08-28T08:55:43Z</time>
      </trkpt>
      <trkpt lat="44.33037" lon="1.98752">
        <ele>366.318</ele>
        <time>2019-08-28T08:55:56Z</time>
      </trkpt>
      <trkpt lat="44.33057" lon="1.98743">
        <ele>368.987</ele>
        <time>2019-08-28T08:56:02Z</time>
      </trkpt>
      <trkpt lat="44.33078" lon="1.98733">
        <ele>370.382</ele>
        <time>2019-08-28T08:57:02Z</time>
      </trkpt>
      <trkpt lat="44.33092" lon="1.98736">
        <ele>371.191</ele>
        <time>2019-08-28T08:57:07Z</time>
      </trkpt>
      <trkpt lat="44.33109" lon="1.9874">
        <ele>371.89</ele>
        <time>2019-08-28T08:57:13Z</time>
      </trkpt>
      <trkpt lat="44.33124" lon="1.98739">
        <ele>372.798</ele>
        <time>2019-08-28T08:57:18Z</time>
      </trkpt>
      <trkpt lat="44.33141" lon="1.98738">
        <ele>374.115</ele>
        <time>2019-08-28T08:57:24Z</time>
      </trkpt>
      <trkpt lat="44.33155" lon="1.98734">
        <ele>375.732</ele>
        <time>2019-08-28T08:57:29Z</time>
      </trkpt>
      <trkpt lat="44.33172" lon="1.98725">
        <ele>377.977</ele>
        <time>2019-08-28T08:57:34Z</time>
      </trkpt>
      <trkpt lat="44.33244" lon="1.98687">
        <ele>385.273</ele>
        <time>2019-08-28T08:57:58Z</time>
      </trkpt>
      <trkpt lat="44.33262" lon="1.98674">
        <ele>385.687</ele>
        <time>2019-08-28T08:58:03Z</time>
      </trkpt>
      <trkpt lat="44.33282" lon="1.98661">
        <ele>386.051</ele>
        <time>2019-08-28T08:58:09Z</time>
      </trkpt>
      <trkpt lat="44.33298" lon="1.98648">
        <ele>387.369</ele>
        <time>2019-08-28T08:58:14Z</time>
      </trkpt>
      <trkpt lat="44.33318" lon="1.98635">
        <ele>388.474</ele>
        <time>2019-08-28T08:58:20Z</time>
      </trkpt>
      <trkpt lat="44.33337" lon="1.98621">
        <ele>389.098</ele>
        <time>2019-08-28T08:58:26Z</time>
      </trkpt>
      <trkpt lat="44.33357" lon="1.98605">
        <ele>388.884</ele>
        <time>2019-08-28T08:58:32Z</time>
      </trkpt>
      <trkpt lat="44.33377" lon="1.98598">
        <ele>389.305</ele>
        <time>2019-08-28T08:58:38Z</time>
      </trkpt>
      <trkpt lat="44.33397" lon="1.98589">
        <ele>389.405</ele>
        <time>2019-08-28T08:58:44Z</time>
      </trkpt>
      <trkpt lat="44.33416" lon="1.98583">
        <ele>389.5</ele>
        <time>2019-08-28T08:58:50Z</time>
      </trkpt>
      <trkpt lat="44.33434" lon="1.9857">
        <ele>389.988</ele>
        <time>2019-08-28T08:58:56Z</time>
      </trkpt>
      <trkpt lat="44.33449" lon="1.98558">
        <ele>390.641</ele>
        <time>2019-08-28T08:59:01Z</time>
      </trkpt>
      <trkpt lat="44.33464" lon="1.98545">
        <ele>390.235</ele>
        <time>2019-08-28T08:59:06Z</time>
      </trkpt>
      <trkpt lat="44.33529" lon="1.98487">
        <ele>389.335</ele>
        <time>2019-08-28T08:59:31Z</time>
      </trkpt>
      <trkpt lat="44.33543" lon="1.98474">
        <ele>384.402</ele>
        <time>2019-08-28T08:59:37Z</time>
      </trkpt>
      <trkpt lat="44.33554" lon="1.98463">
        <ele>380.781</ele>
        <time>2019-08-28T08:59:42Z</time>
      </trkpt>
      <trkpt lat="44.33567" lon="1.98452">
        <ele>378.477</ele>
        <time>2019-08-28T08:59:47Z</time>
      </trkpt>
      <trkpt lat="44.33589" lon="1.98435">
        <ele>377.838</ele>
        <time>2019-08-28T08:59:53Z</time>
      </trkpt>
      <trkpt lat="44.33605" lon="1.98423">
        <ele>378.432</ele>
        <time>2019-08-28T08:59:58Z</time>
      </trkpt>
      <trkpt lat="44.33622" lon="1.98407">
        <ele>377.727</ele>
        <time>2019-08-28T09:00:04Z</time>
      </trkpt>
      <trkpt lat="44.33636" lon="1.98395">
        <ele>377.917</ele>
        <time>2019-08-28T09:00:09Z</time>
      </trkpt>
      <trkpt lat="44.33654" lon="1.98384">
        <ele>376.64</ele>
        <time>2019-08-28T09:00:15Z</time>
      </trkpt>
      <trkpt lat="44.33669" lon="1.98373">
        <ele>375.628</ele>
        <time>2019-08-28T09:00:21Z</time>
      </trkpt>
      <trkpt lat="44.33679" lon="1.98361">
        <ele>374.203</ele>
        <time>2019-08-28T09:00:26Z</time>
      </trkpt>
      <trkpt lat="44.33699" lon="1.98333">
        <ele>371.633</ele>
        <time>2019-08-28T09:00:32Z</time>
      </trkpt>
      <trkpt lat="44.33719" lon="1.98321">
        <ele>370.082</ele>
        <time>2019-08-28T09:00:38Z</time>
      </trkpt>
      <trkpt lat="44.33739" lon="1.98307">
        <ele>368.862</ele>
        <time>2019-08-28T09:00:44Z</time>
      </trkpt>
      <trkpt lat="44.33756" lon="1.98292">
        <ele>366.523</ele>
        <time>2019-08-28T09:00:50Z</time>
      </trkpt>
      <trkpt lat="44.3377" lon="1.98268">
        <ele>362.764</ele>
        <time>2019-08-28T09:00:56Z</time>
      </trkpt>
      <trkpt lat="44.33787" lon="1.98245">
        <ele>360.421</ele>
        <time>2019-08-28T09:01:02Z</time>
      </trkpt>
      <trkpt lat="44.33796" lon="1.9824">
        <ele>360.765</ele>
        <time>2019-08-28T09:01:48Z</time>
      </trkpt>
      <trkpt lat="44.33808" lon="1.98253">
        <ele>363.356</ele>
        <time>2019-08-28T09:01:54Z</time>
      </trkpt>
      <trkpt lat="44.33819" lon="1.98267">
        <ele>364.248</ele>
        <time>2019-08-28T09:02:00Z</time>
      </trkpt>
      <trkpt lat="44.33832" lon="1.98282">
        <ele>364.592</ele>
        <time>2019-08-28T09:02:05Z</time>
      </trkpt>
      <trkpt lat="44.33843" lon="1.983">
        <ele>363.99</ele>
        <time>2019-08-28T09:02:10Z</time>
      </trkpt>
      <trkpt lat="44.33856" lon="1.9832">
        <ele>363.256</ele>
        <time>2019-08-28T09:02:16Z</time>
      </trkpt>
      <trkpt lat="44.33874" lon="1.98342">
        <ele>363.155</ele>
        <time>2019-08-28T09:02:22Z</time>
      </trkpt>
      <trkpt lat="44.33889" lon="1.98361">
        <ele>362.943</ele>
        <time>2019-08-28T09:02:28Z</time>
      </trkpt>
      <trkpt lat="44.33902" lon="1.98371">
        <ele>363.281</ele>
        <time>2019-08-28T09:02:33Z</time>
      </trkpt>
      <trkpt lat="44.33913" lon="1.98386">
        <ele>365.125</ele>
        <time>2019-08-28T09:02:38Z</time>
      </trkpt>
      <trkpt lat="44.33928" lon="1.98403">
        <ele>367.436</ele>
        <time>2019-08-28T09:02:44Z</time>
      </trkpt>
      <trkpt lat="44.33939" lon="1.98416">
        <ele>368.467</ele>
        <time>2019-08-28T09:02:49Z</time>
      </trkpt>
      <trkpt lat="44.33953" lon="1.98433">
        <ele>369.569</ele>
        <time>2019-08-28T09:02:55Z</time>
      </trkpt>
      <trkpt lat="44.33966" lon="1.98449">
        <ele>371.97</ele>
        <time>2019-08-28T09:03:01Z</time>
      </trkpt>
      <trkpt lat="44.33981" lon="1.98451">
        <ele>374.628</ele>
        <time>2019-08-28T09:03:07Z</time>
      </trkpt>
      <trkpt lat="44.33997" lon="1.98446">
        <ele>375.5</ele>
        <time>2019-08-28T09:03:13Z</time>
      </trkpt>
      <trkpt lat="44.34006" lon="1.98452">
        <ele>377.107</ele>
        <time>2019-08-28T09:03:19Z</time>
      </trkpt>
      <trkpt lat="44.34016" lon="1.98457">
        <ele>378.304</ele>
        <time>2019-08-28T09:03:25Z</time>
      </trkpt>
      <trkpt lat="44.34028" lon="1.98465">
        <ele>378.191</ele>
        <time>2019-08-28T09:03:31Z</time>
      </trkpt>
      <trkpt lat="44.34044" lon="1.98475">
        <ele>378.065</ele>
        <time>2019-08-28T09:03:36Z</time>
      </trkpt>
      <trkpt lat="44.34102" lon="1.98482">
        <ele>375.676</ele>
        <time>2019-08-28T09:03:58Z</time>
      </trkpt>
      <trkpt lat="44.34149" lon="1.98491">
        <ele>373.819</ele>
        <time>2019-08-28T09:04:05Z</time>
      </trkpt>
      <trkpt lat="44.34171" lon="1.98509">
        <ele>371.956</ele>
        <time>2019-08-28T09:04:10Z</time>
      </trkpt>
      <trkpt lat="44.34187" lon="1.9853">
        <ele>369.322</ele>
        <time>2019-08-28T09:04:16Z</time>
      </trkpt>
      <trkpt lat="44.34197" lon="1.98564">
        <ele>364.06</ele>
        <time>2019-08-28T09:04:24Z</time>
      </trkpt>
      <trkpt lat="44.34196" lon="1.98632">
        <ele>357.567</ele>
        <time>2019-08-28T09:04:30Z</time>
      </trkpt>
      <trkpt lat="44.34198" lon="1.9868">
        <ele>355.292</ele>
        <time>2019-08-28T09:04:35Z</time>
      </trkpt>
      <trkpt lat="44.34198" lon="1.98723">
        <ele>353.638</ele>
        <time>2019-08-28T09:04:41Z</time>
      </trkpt>
      <trkpt lat="44.34196" lon="1.98765">
        <ele>351.978</ele>
        <time>2019-08-28T09:04:47Z</time>
      </trkpt>
      <trkpt lat="44.342" lon="1.98801">
        <ele>351.338</ele>
        <time>2019-08-28T09:04:52Z</time>
      </trkpt>
      <trkpt lat="44.34205" lon="1.98837">
        <ele>352.196</ele>
        <time>2019-08-28T09:04:57Z</time>
      </trkpt>
      <trkpt lat="44.34209" lon="1.98866">
        <ele>354.81</ele>
        <time>2019-08-28T09:05:02Z</time>
      </trkpt>
      <trkpt lat="44.34207" lon="1.98902">
        <ele>355.587</ele>
        <time>2019-08-28T09:05:08Z</time>
      </trkpt>
      <trkpt lat="44.34197" lon="1.98936">
        <ele>356.092</ele>
        <time>2019-08-28T09:05:14Z</time>
      </trkpt>
      <trkpt lat="44.34183" lon="1.98964">
        <ele>356.291</ele>
        <time>2019-08-28T09:05:19Z</time>
      </trkpt>
      <trkpt lat="44.34157" lon="1.9898">
        <ele>355.217</ele>
        <time>2019-08-28T09:05:25Z</time>
      </trkpt>
      <trkpt lat="44.34138" lon="1.99006">
        <ele>352.273</ele>
        <time>2019-08-28T09:05:31Z</time>
      </trkpt>
      <trkpt lat="44.34135" lon="1.9904">
        <ele>349.823</ele>
        <time>2019-08-28T09:05:37Z</time>
      </trkpt>
      <trkpt lat="44.34145" lon="1.99065">
        <ele>348.533</ele>
        <time>2019-08-28T09:05:42Z</time>
      </trkpt>
      <trkpt lat="44.34165" lon="1.99073">
        <ele>348.776</ele>
        <time>2019-08-28T09:05:48Z</time>
      </trkpt>
      <trkpt lat="44.34189" lon="1.99065">
        <ele>348.668</ele>
        <time>2019-08-28T09:05:54Z</time>
      </trkpt>
      <trkpt lat="44.34202" lon="1.99075">
        <ele>347.338</ele>
        <time>2019-08-28T09:05:59Z</time>
      </trkpt>
      <trkpt lat="44.34219" lon="1.99087">
        <ele>344.981</ele>
        <time>2019-08-28T09:06:05Z</time>
      </trkpt>
      <trkpt lat="44.34235" lon="1.99099">
        <ele>341.905</ele>
        <time>2019-08-28T09:06:11Z</time>
      </trkpt>
      <trkpt lat="44.34255" lon="1.99108">
        <ele>337.76</ele>
        <time>2019-08-28T09:06:17Z</time>
      </trkpt>
      <trkpt lat="44.34269" lon="1.99112">
        <ele>334.518</ele>
        <time>2019-08-28T09:06:22Z</time>
      </trkpt>
      <trkpt lat="44.34283" lon="1.99115">
        <ele>332.248</ele>
        <time>2019-08-28T09:06:28Z</time>
      </trkpt>
      <trkpt lat="44.34291" lon="1.9912">
        <ele>330.756</ele>
        <time>2019-08-28T09:06:33Z</time>
      </trkpt>
      <trkpt lat="44.34292" lon="1.99134">
        <ele>327.604</ele>
        <time>2019-08-28T09:06:39Z</time>
      </trkpt>
      <trkpt lat="44.3429" lon="1.99151">
        <ele>324.363</ele>
        <time>2019-08-28T09:06:45Z</time>
      </trkpt>
      <trkpt lat="44.3429" lon="1.99171">
        <ele>320.099</ele>
        <time>2019-08-28T09:06:51Z</time>
      </trkpt>
      <trkpt lat="44.34292" lon="1.99188">
        <ele>318.047</ele>
        <time>2019-08-28T09:06:57Z</time>
      </trkpt>
      <trkpt lat="44.34293" lon="1.99214">
        <ele>315.93</ele>
        <time>2019-08-28T09:07:07Z</time>
      </trkpt>
      <trkpt lat="44.34299" lon="1.99276">
        <ele>307.772</ele>
        <time>2019-08-28T09:07:26Z</time>
      </trkpt>
      <trkpt lat="44.34297" lon="1.99307">
        <ele>303.725</ele>
        <time>2019-08-28T09:07:32Z</time>
      </trkpt>
      <trkpt lat="44.34286" lon="1.99346">
        <ele>295.219</ele>
        <time>2019-08-28T09:07:47Z</time>
      </trkpt>
      <trkpt lat="44.34282" lon="1.99357">
        <ele>295.604</ele>
        <time>2019-08-28T09:08:21Z</time>
      </trkpt>
      <trkpt lat="44.34256" lon="1.99383">
        <ele>292.963</ele>
        <time>2019-08-28T09:13:23Z</time>
      </trkpt>
      <trkpt lat="44.34048" lon="1.99633">
        <ele>302.601</ele>
        <time>2019-08-28T09:14:55Z</time>
      </trkpt>
      <trkpt lat="44.33929" lon="1.99821">
        <ele>287.483</ele>
        <time>2019-08-28T09:16:38Z</time>
      </trkpt>
      <trkpt lat="44.3395" lon="1.99826">
        <ele>281.854</ele>
        <time>2019-08-28T09:16:43Z</time>
      </trkpt>
      <trkpt lat="44.3397" lon="1.99834">
        <ele>279.668</ele>
        <time>2019-08-28T09:16:49Z</time>
      </trkpt>
      <trkpt lat="44.33983" lon="1.99839">
        <ele>277.978</ele>
        <time>2019-08-28T09:16:54Z</time>
      </trkpt>
      <trkpt lat="44.33996" lon="1.9985">
        <ele>276.007</ele>
        <time>2019-08-28T09:17:00Z</time>
      </trkpt>
      <trkpt lat="44.33994" lon="1.99869">
        <ele>276.863</ele>
        <time>2019-08-28T09:17:05Z</time>
      </trkpt>
      <trkpt lat="44.33984" lon="1.9989">
        <ele>276.713</ele>
        <time>2019-08-28T09:17:11Z</time>
      </trkpt>
      <trkpt lat="44.33976" lon="1.99906">
        <ele>276.717</ele>
        <time>2019-08-28T09:17:16Z</time>
      </trkpt>
      <trkpt lat="44.33961" lon="1.99932">
        <ele>276.732</ele>
        <time>2019-08-28T09:17:22Z</time>
      </trkpt>
      <trkpt lat="44.33947" lon="1.99955">
        <ele>276.805</ele>
        <time>2019-08-28T09:17:27Z</time>
      </trkpt>
      <trkpt lat="44.33935" lon="1.99985">
        <ele>278.371</ele>
        <time>2019-08-28T09:17:33Z</time>
      </trkpt>
      <trkpt lat="44.33923" lon="2.00009">
        <ele>278.999</ele>
        <time>2019-08-28T09:17:38Z</time>
      </trkpt>
      <trkpt lat="44.33911" lon="2.00034">
        <ele>278.531</ele>
        <time>2019-08-28T09:17:43Z</time>
      </trkpt>
      <trkpt lat="44.33895" lon="2.00072">
        <ele>277.497</ele>
        <time>2019-08-28T09:17:49Z</time>
      </trkpt>
      <trkpt lat="44.33881" lon="2.00104">
        <ele>277.317</ele>
        <time>2019-08-28T09:17:54Z</time>
      </trkpt>
      <trkpt lat="44.33871" lon="2.00137">
        <ele>276.83</ele>
        <time>2019-08-28T09:18:00Z</time>
      </trkpt>
      <trkpt lat="44.33859" lon="2.00162">
        <ele>276.769</ele>
        <time>2019-08-28T09:18:05Z</time>
      </trkpt>
      <trkpt lat="44.33846" lon="2.00195">
        <ele>276.581</ele>
        <time>2019-08-28T09:18:10Z</time>
      </trkpt>
      <trkpt lat="44.33835" lon="2.00236">
        <ele>276.104</ele>
        <time>2019-08-28T09:18:16Z</time>
      </trkpt>
      <trkpt lat="44.33825" lon="2.00273">
        <ele>275.864</ele>
        <time>2019-08-28T09:18:21Z</time>
      </trkpt>
      <trkpt lat="44.33815" lon="2.0031">
        <ele>274.76</ele>
        <time>2019-08-28T09:18:27Z</time>
      </trkpt>
      <trkpt lat="44.33812" lon="2.0033">
        <ele>273.514</ele>
        <time>2019-08-28T09:18:32Z</time>
      </trkpt>
      <trkpt lat="44.3381" lon="2.00344">
        <ele>274.085</ele>
        <time>2019-08-28T09:18:40Z</time>
      </trkpt>
      <trkpt lat="44.33808" lon="2.00359">
        <ele>274.958</ele>
        <time>2019-08-28T09:18:45Z</time>
      </trkpt>
      <trkpt lat="44.33809" lon="2.0038">
        <ele>276.287</ele>
        <time>2019-08-28T09:18:51Z</time>
      </trkpt>
      <trkpt lat="44.33811" lon="2.00394">
        <ele>278.038</ele>
        <time>2019-08-28T09:18:57Z</time>
      </trkpt>
      <trkpt lat="44.33816" lon="2.00439">
        <ele>275.472</ele>
        <time>2019-08-28T09:19:07Z</time>
      </trkpt>
      <trkpt lat="44.33837" lon="2.00526">
        <ele>274.405</ele>
        <time>2019-08-28T09:19:26Z</time>
      </trkpt>
      <trkpt lat="44.33843" lon="2.00568">
        <ele>275.781</ele>
        <time>2019-08-28T09:19:33Z</time>
      </trkpt>
      <trkpt lat="44.33845" lon="2.00594">
        <ele>275.211</ele>
        <time>2019-08-28T09:19:38Z</time>
      </trkpt>
      <trkpt lat="44.33844" lon="2.00645">
        <ele>273.329</ele>
        <time>2019-08-28T09:19:48Z</time>
      </trkpt>
      <trkpt lat="44.33834" lon="2.00735">
        <ele>273.707</ele>
        <time>2019-08-28T09:22:13Z</time>
      </trkpt>
      <trkpt lat="44.33829" lon="2.00761">
        <ele>271.427</ele>
        <time>2019-08-28T09:22:19Z</time>
      </trkpt>
      <trkpt lat="44.33828" lon="2.0079">
        <ele>269.549</ele>
        <time>2019-08-28T09:22:24Z</time>
      </trkpt>
      <trkpt lat="44.33826" lon="2.00825">
        <ele>268.425</ele>
        <time>2019-08-28T09:22:31Z</time>
      </trkpt>
      <trkpt lat="44.33821" lon="2.00857">
        <ele>268.879</ele>
        <time>2019-08-28T09:22:37Z</time>
      </trkpt>
      <trkpt lat="44.33818" lon="2.00887">
        <ele>268.426</ele>
        <time>2019-08-28T09:22:43Z</time>
      </trkpt>
      <trkpt lat="44.33816" lon="2.00929">
        <ele>268.18</ele>
        <time>2019-08-28T09:22:49Z</time>
      </trkpt>
      <trkpt lat="44.33815" lon="2.00979">
        <ele>266.309</ele>
        <time>2019-08-28T09:22:55Z</time>
      </trkpt>
      <trkpt lat="44.33814" lon="2.01017">
        <ele>265.928</ele>
        <time>2019-08-28T09:23:01Z</time>
      </trkpt>
      <trkpt lat="44.33811" lon="2.01047">
        <ele>266.693</ele>
        <time>2019-08-28T09:23:07Z</time>
      </trkpt>
      <trkpt lat="44.33812" lon="2.01079">
        <ele>265.775</ele>
        <time>2019-08-28T09:23:14Z</time>
      </trkpt>
      <trkpt lat="44.33814" lon="2.011">
        <ele>265.873</ele>
        <time>2019-08-28T09:23:19Z</time>
      </trkpt>
      <trkpt lat="44.3382" lon="2.01133">
        <ele>265.351</ele>
        <time>2019-08-28T09:23:25Z</time>
      </trkpt>
      <trkpt lat="44.33821" lon="2.01169">
        <ele>265.608</ele>
        <time>2019-08-28T09:23:30Z</time>
      </trkpt>
      <trkpt lat="44.33822" lon="2.01198">
        <ele>265.632</ele>
        <time>2019-08-28T09:23:35Z</time>
      </trkpt>
      <trkpt lat="44.33819" lon="2.01226">
        <ele>266.531</ele>
        <time>2019-08-28T09:23:41Z</time>
      </trkpt>
      <trkpt lat="44.33825" lon="2.01237">
        <ele>268.539</ele>
        <time>2019-08-28T09:23:46Z</time>
      </trkpt>
      <trkpt lat="44.33841" lon="2.01219">
        <ele>268.835</ele>
        <time>2019-08-28T09:23:52Z</time>
      </trkpt>
      <trkpt lat="44.33856" lon="2.01205">
        <ele>270.642</ele>
        <time>2019-08-28T09:23:58Z</time>
      </trkpt>
      <trkpt lat="44.3387" lon="2.01197">
        <ele>272.04</ele>
        <time>2019-08-28T09:24:03Z</time>
      </trkpt>
      <trkpt lat="44.33885" lon="2.01188">
        <ele>273.587</ele>
        <time>2019-08-28T09:24:09Z</time>
      </trkpt>
      <trkpt lat="44.33898" lon="2.01177">
        <ele>273.56</ele>
        <time>2019-08-28T09:24:15Z</time>
      </trkpt>
      <trkpt lat="44.33914" lon="2.01168">
        <ele>274.711</ele>
        <time>2019-08-28T09:24:20Z</time>
      </trkpt>
      <trkpt lat="44.33932" lon="2.01156">
        <ele>276.879</ele>
        <time>2019-08-28T09:24:26Z</time>
      </trkpt>
      <trkpt lat="44.33952" lon="2.01144">
        <ele>279.598</ele>
        <time>2019-08-28T09:24:32Z</time>
      </trkpt>
      <trkpt lat="44.33969" lon="2.01132">
        <ele>281.418</ele>
        <time>2019-08-28T09:24:38Z</time>
      </trkpt>
      <trkpt lat="44.33982" lon="2.01123">
        <ele>283.453</ele>
        <time>2019-08-28T09:24:43Z</time>
      </trkpt>
      <trkpt lat="44.33998" lon="2.01109">
        <ele>284.266</ele>
        <time>2019-08-28T09:24:49Z</time>
      </trkpt>
      <trkpt lat="44.34015" lon="2.01096">
        <ele>286.258</ele>
        <time>2019-08-28T09:24:55Z</time>
      </trkpt>
      <trkpt lat="44.34026" lon="2.01088">
        <ele>287.899</ele>
        <time>2019-08-28T09:25:00Z</time>
      </trkpt>
      <trkpt lat="44.3405" lon="2.01065">
        <ele>291.461</ele>
        <time>2019-08-28T09:25:10Z</time>
      </trkpt>
      <trkpt lat="44.34069" lon="2.0105">
        <ele>294.543</ele>
        <time>2019-08-28T09:25:17Z</time>
      </trkpt>
      <trkpt lat="44.34082" lon="2.01038">
        <ele>295.873</ele>
        <time>2019-08-28T09:25:22Z</time>
      </trkpt>
      <trkpt lat="44.34098" lon="2.01024">
        <ele>295.762</ele>
        <time>2019-08-28T09:25:27Z</time>
      </trkpt>
      <trkpt lat="44.3411" lon="2.01">
        <ele>296.742</ele>
        <time>2019-08-28T09:25:33Z</time>
      </trkpt>
      <trkpt lat="44.3412" lon="2.00993">
        <ele>298.275</ele>
        <time>2019-08-28T09:25:57Z</time>
      </trkpt>
      <trkpt lat="44.34132" lon="2.00987">
        <ele>299.502</ele>
        <time>2019-08-28T09:26:02Z</time>
      </trkpt>
      <trkpt lat="44.34147" lon="2.00983">
        <ele>302.058</ele>
        <time>2019-08-28T09:26:07Z</time>
      </trkpt>
      <trkpt lat="44.3416" lon="2.00974">
        <ele>303.76</ele>
        <time>2019-08-28T09:26:12Z</time>
      </trkpt>
      <trkpt lat="44.34176" lon="2.00963">
        <ele>305.457</ele>
        <time>2019-08-28T09:26:18Z</time>
      </trkpt>
      <trkpt lat="44.34192" lon="2.00952">
        <ele>306.938</ele>
        <time>2019-08-28T09:26:24Z</time>
      </trkpt>
      <trkpt lat="44.34207" lon="2.00939">
        <ele>308.24</ele>
        <time>2019-08-28T09:26:30Z</time>
      </trkpt>
      <trkpt lat="44.34218" lon="2.00928">
        <ele>309.262</ele>
        <time>2019-08-28T09:26:55Z</time>
      </trkpt>
      <trkpt lat="44.3423" lon="2.00917">
        <ele>309.592</ele>
        <time>2019-08-28T09:27:00Z</time>
      </trkpt>
      <trkpt lat="44.34244" lon="2.00902">
        <ele>310.61</ele>
        <time>2019-08-28T09:27:06Z</time>
      </trkpt>
      <trkpt lat="44.3425" lon="2.00883">
        <ele>310.859</ele>
        <time>2019-08-28T09:27:11Z</time>
      </trkpt>
      <trkpt lat="44.34248" lon="2.00855">
        <ele>312.949</ele>
        <time>2019-08-28T09:27:17Z</time>
      </trkpt>
      <trkpt lat="44.34242" lon="2.00833">
        <ele>314.54</ele>
        <time>2019-08-28T09:27:22Z</time>
      </trkpt>
      <trkpt lat="44.34236" lon="2.00813">
        <ele>316.004</ele>
        <time>2019-08-28T09:27:27Z</time>
      </trkpt>
      <trkpt lat="44.34229" lon="2.00793">
        <ele>319.312</ele>
        <time>2019-08-28T09:27:33Z</time>
      </trkpt>
      <trkpt lat="44.34228" lon="2.00775">
        <ele>322.433</ele>
        <time>2019-08-28T09:27:38Z</time>
      </trkpt>
      <trkpt lat="44.34232" lon="2.00754">
        <ele>325.259</ele>
        <time>2019-08-28T09:27:44Z</time>
      </trkpt>
      <trkpt lat="44.34242" lon="2.00738">
        <ele>328.176</ele>
        <time>2019-08-28T09:27:49Z</time>
      </trkpt>
      <trkpt lat="44.34258" lon="2.00724">
        <ele>331.588</ele>
        <time>2019-08-28T09:27:55Z</time>
      </trkpt>
      <trkpt lat="44.3427" lon="2.00715">
        <ele>334.343</ele>
        <time>2019-08-28T09:28:00Z</time>
      </trkpt>
      <trkpt lat="44.34288" lon="2.007">
        <ele>334.162</ele>
        <time>2019-08-28T09:28:06Z</time>
      </trkpt>
      <trkpt lat="44.34306" lon="2.00687">
        <ele>335.97</ele>
        <time>2019-08-28T09:28:12Z</time>
      </trkpt>
      <trkpt lat="44.34318" lon="2.00676">
        <ele>338.743</ele>
        <time>2019-08-28T09:28:17Z</time>
      </trkpt>
      <trkpt lat="44.34317" lon="2.00656">
        <ele>340.361</ele>
        <time>2019-08-28T09:28:22Z</time>
      </trkpt>
      <trkpt lat="44.34315" lon="2.00631">
        <ele>341.998</ele>
        <time>2019-08-28T09:28:27Z</time>
      </trkpt>
      <trkpt lat="44.34321" lon="2.00609">
        <ele>344.529</ele>
        <time>2019-08-28T09:28:33Z</time>
      </trkpt>
      <trkpt lat="44.34333" lon="2.00595">
        <ele>345.152</ele>
        <time>2019-08-28T09:28:38Z</time>
      </trkpt>
      <trkpt lat="44.34344" lon="2.0058">
        <ele>345.522</ele>
        <time>2019-08-28T09:28:43Z</time>
      </trkpt>
      <trkpt lat="44.34359" lon="2.00566">
        <ele>345.495</ele>
        <time>2019-08-28T09:28:49Z</time>
      </trkpt>
      <trkpt lat="44.34376" lon="2.00553">
        <ele>347.3</ele>
        <time>2019-08-28T09:28:55Z</time>
      </trkpt>
      <trkpt lat="44.34395" lon="2.00543">
        <ele>349.554</ele>
        <time>2019-08-28T09:29:01Z</time>
      </trkpt>
      <trkpt lat="44.34416" lon="2.00534">
        <ele>352.777</ele>
        <time>2019-08-28T09:29:07Z</time>
      </trkpt>
      <trkpt lat="44.34437" lon="2.00524">
        <ele>354.566</ele>
        <time>2019-08-28T09:29:13Z</time>
      </trkpt>
      <trkpt lat="44.34456" lon="2.00513">
        <ele>355.519</ele>
        <time>2019-08-28T09:29:19Z</time>
      </trkpt>
      <trkpt lat="44.34472" lon="2.00504">
        <ele>356.572</ele>
        <time>2019-08-28T09:29:24Z</time>
      </trkpt>
      <trkpt lat="44.34491" lon="2.00496">
        <ele>357.818</ele>
        <time>2019-08-28T09:29:30Z</time>
      </trkpt>
      <trkpt lat="44.34502" lon="2.00485">
        <ele>358.452</ele>
        <time>2019-08-28T09:29:35Z</time>
      </trkpt>
      <trkpt lat="44.34486" lon="2.0047">
        <ele>357.892</ele>
        <time>2019-08-28T09:29:41Z</time>
      </trkpt>
      <trkpt lat="44.34472" lon="2.00452">
        <ele>357.884</ele>
        <time>2019-08-28T09:29:47Z</time>
      </trkpt>
      <trkpt lat="44.34456" lon="2.00432">
        <ele>357.958</ele>
        <time>2019-08-28T09:29:53Z</time>
      </trkpt>
      <trkpt lat="44.34444" lon="2.00409">
        <ele>359.15</ele>
        <time>2019-08-28T09:29:58Z</time>
      </trkpt>
      <trkpt lat="44.34436" lon="2.00376">
        <ele>359.69</ele>
        <time>2019-08-28T09:30:04Z</time>
      </trkpt>
      <trkpt lat="44.34439" lon="2.00342">
        <ele>360.971</ele>
        <time>2019-08-28T09:30:09Z</time>
      </trkpt>
      <trkpt lat="44.34446" lon="2.0031">
        <ele>362.778</ele>
        <time>2019-08-28T09:30:14Z</time>
      </trkpt>
      <trkpt lat="44.34454" lon="2.00271">
        <ele>364.192</ele>
        <time>2019-08-28T09:30:20Z</time>
      </trkpt>
      <trkpt lat="44.34446" lon="2.00244">
        <ele>365.166</ele>
        <time>2019-08-28T09:30:25Z</time>
      </trkpt>
      <trkpt lat="44.34419" lon="2.0023">
        <ele>367.219</ele>
        <time>2019-08-28T09:30:30Z</time>
      </trkpt>
      <trkpt lat="44.3439" lon="2.00214">
        <ele>367.198</ele>
        <time>2019-08-28T09:30:36Z</time>
      </trkpt>
      <trkpt lat="44.34364" lon="2.00203">
        <ele>367.42</ele>
        <time>2019-08-28T09:30:42Z</time>
      </trkpt>
      <trkpt lat="44.34339" lon="2.00188">
        <ele>368.025</ele>
        <time>2019-08-28T09:30:48Z</time>
      </trkpt>
      <trkpt lat="44.34321" lon="2.00181">
        <ele>368.515</ele>
        <time>2019-08-28T09:30:54Z</time>
      </trkpt>
      <trkpt lat="44.34306" lon="2.00173">
        <ele>369.025</ele>
        <time>2019-08-28T09:30:59Z</time>
      </trkpt>
      <trkpt lat="44.34282" lon="2.00162">
        <ele>368.316</ele>
        <time>2019-08-28T09:31:05Z</time>
      </trkpt>
      <trkpt lat="44.34251" lon="2.00146">
        <ele>365.916</ele>
        <time>2019-08-28T09:31:11Z</time>
      </trkpt>
      <trkpt lat="44.34229" lon="2.00133">
        <ele>363.325</ele>
        <time>2019-08-28T09:31:17Z</time>
      </trkpt>
      <trkpt lat="44.34217" lon="2.00114">
        <ele>361.51</ele>
        <time>2019-08-28T09:31:23Z</time>
      </trkpt>
      <trkpt lat="44.34223" lon="2.00096">
        <ele>360.032</ele>
        <time>2019-08-28T09:31:28Z</time>
      </trkpt>
      <trkpt lat="44.34238" lon="2.00078">
        <ele>357.808</ele>
        <time>2019-08-28T09:31:34Z</time>
      </trkpt>
      <trkpt lat="44.34253" lon="2.00058">
        <ele>356.413</ele>
        <time>2019-08-28T09:31:40Z</time>
      </trkpt>
      <trkpt lat="44.34266" lon="2.00043">
        <ele>355.27</ele>
        <time>2019-08-28T09:31:46Z</time>
      </trkpt>
      <trkpt lat="44.34277" lon="2.00032">
        <ele>355.636</ele>
        <time>2019-08-28T09:31:52Z</time>
      </trkpt>
      <trkpt lat="44.34288" lon="2.00018">
        <ele>356.291</ele>
        <time>2019-08-28T09:31:57Z</time>
      </trkpt>
      <trkpt lat="44.34295" lon="2.00009">
        <ele>356.792</ele>
        <time>2019-08-28T09:32:16Z</time>
      </trkpt>
      <trkpt lat="44.34286" lon="2.00021">
        <ele>357.302</ele>
        <time>2019-08-28T09:32:22Z</time>
      </trkpt>
      <trkpt lat="44.34277" lon="2.00032">
        <ele>356.267</ele>
        <time>2019-08-28T09:32:27Z</time>
      </trkpt>
      <trkpt lat="44.34264" lon="2.00043">
        <ele>357.567</ele>
        <time>2019-08-28T09:32:33Z</time>
      </trkpt>
      <trkpt lat="44.34257" lon="2.00051">
        <ele>359.126</ele>
        <time>2019-08-28T09:32:39Z</time>
      </trkpt>
      <trkpt lat="44.34247" lon="2.00065">
        <ele>359.304</ele>
        <time>2019-08-28T09:32:44Z</time>
      </trkpt>
      <trkpt lat="44.34239" lon="2.00075">
        <ele>360.388</ele>
        <time>2019-08-28T09:32:50Z</time>
      </trkpt>
      <trkpt lat="44.34233" lon="2.00084">
        <ele>360.33</ele>
        <time>2019-08-28T09:32:56Z</time>
      </trkpt>
      <trkpt lat="44.34225" lon="2.00092">
        <ele>359.748</ele>
        <time>2019-08-28T09:33:03Z</time>
      </trkpt>
      <trkpt lat="44.34217" lon="2.00103">
        <ele>359.049</ele>
        <time>2019-08-28T09:33:09Z</time>
      </trkpt>
      <trkpt lat="44.34217" lon="2.00118">
        <ele>359.318</ele>
        <time>2019-08-28T09:33:15Z</time>
      </trkpt>
      <trkpt lat="44.34228" lon="2.00134">
        <ele>358.912</ele>
        <time>2019-08-28T09:33:21Z</time>
      </trkpt>
      <trkpt lat="44.34222" lon="2.00147">
        <ele>358.795</ele>
        <time>2019-08-28T09:34:19Z</time>
      </trkpt>
      <trkpt lat="44.34211" lon="2.00169">
        <ele>358.987</ele>
        <time>2019-08-28T09:34:24Z</time>
      </trkpt>
      <trkpt lat="44.34204" lon="2.00192">
        <ele>359.3</ele>
        <time>2019-08-28T09:34:30Z</time>
      </trkpt>
      <trkpt lat="44.34194" lon="2.00219">
        <ele>359.667</ele>
        <time>2019-08-28T09:34:35Z</time>
      </trkpt>
      <trkpt lat="44.34185" lon="2.00243">
        <ele>359.198</ele>
        <time>2019-08-28T09:34:41Z</time>
      </trkpt>
      <trkpt lat="44.34171" lon="2.00273">
        <ele>359.105</ele>
        <time>2019-08-28T09:34:46Z</time>
      </trkpt>
      <trkpt lat="44.34164" lon="2.00288">
        <ele>358.324</ele>
        <time>2019-08-28T09:34:51Z</time>
      </trkpt>
      <trkpt lat="44.34156" lon="2.00307">
        <ele>357.469</ele>
        <time>2019-08-28T09:34:56Z</time>
      </trkpt>
      <trkpt lat="44.34151" lon="2.00329">
        <ele>358.504</ele>
        <time>2019-08-28T09:35:34Z</time>
      </trkpt>
      <trkpt lat="44.34167" lon="2.00334">
        <ele>359.804</ele>
        <time>2019-08-28T09:35:39Z</time>
      </trkpt>
      <trkpt lat="44.34182" lon="2.00339">
        <ele>360.47</ele>
        <time>2019-08-28T09:35:44Z</time>
      </trkpt>
      <trkpt lat="44.34197" lon="2.00344">
        <ele>360.718</ele>
        <time>2019-08-28T09:35:50Z</time>
      </trkpt>
      <trkpt lat="44.34214" lon="2.0035">
        <ele>362.043</ele>
        <time>2019-08-28T09:35:55Z</time>
      </trkpt>
      <trkpt lat="44.34228" lon="2.00355">
        <ele>362.578</ele>
        <time>2019-08-28T09:36:01Z</time>
      </trkpt>
      <trkpt lat="44.34243" lon="2.00361">
        <ele>363.143</ele>
        <time>2019-08-28T09:36:06Z</time>
      </trkpt>
      <trkpt lat="44.34268" lon="2.0037">
        <ele>363.545</ele>
        <time>2019-08-28T09:36:12Z</time>
      </trkpt>
      <trkpt lat="44.34292" lon="2.00375">
        <ele>363.763</ele>
        <time>2019-08-28T09:36:17Z</time>
      </trkpt>
      <trkpt lat="44.34323" lon="2.00386">
        <ele>362.332</ele>
        <time>2019-08-28T09:36:23Z</time>
      </trkpt>
      <trkpt lat="44.3435" lon="2.00391">
        <ele>362.335</ele>
        <time>2019-08-28T09:36:30Z</time>
      </trkpt>
      <trkpt lat="44.34381" lon="2.004">
        <ele>362.065</ele>
        <time>2019-08-28T09:36:35Z</time>
      </trkpt>
      <trkpt lat="44.3441" lon="2.00408">
        <ele>360.938</ele>
        <time>2019-08-28T09:36:40Z</time>
      </trkpt>
      <trkpt lat="44.34433" lon="2.00406">
        <ele>360.388</ele>
        <time>2019-08-28T09:36:46Z</time>
      </trkpt>
      <trkpt lat="44.34434" lon="2.0038">
        <ele>361.376</ele>
        <time>2019-08-28T09:36:51Z</time>
      </trkpt>
      <trkpt lat="44.34437" lon="2.00336">
        <ele>361.404</ele>
        <time>2019-08-28T09:36:57Z</time>
      </trkpt>
      <trkpt lat="44.34446" lon="2.00296">
        <ele>362.448</ele>
        <time>2019-08-28T09:37:04Z</time>
      </trkpt>
      <trkpt lat="44.34458" lon="2.00255">
        <ele>362.785</ele>
        <time>2019-08-28T09:37:09Z</time>
      </trkpt>
      <trkpt lat="44.34466" lon="2.00219">
        <ele>363.156</ele>
        <time>2019-08-28T09:37:14Z</time>
      </trkpt>
      <trkpt lat="44.34476" lon="2.00175">
        <ele>364.012</ele>
        <time>2019-08-28T09:37:20Z</time>
      </trkpt>
      <trkpt lat="44.34486" lon="2.00134">
        <ele>365.29</ele>
        <time>2019-08-28T09:37:25Z</time>
      </trkpt>
      <trkpt lat="44.345" lon="2.0008">
        <ele>365.358</ele>
        <time>2019-08-28T09:37:31Z</time>
      </trkpt>
      <trkpt lat="44.3452" lon="2.00032">
        <ele>365.823</ele>
        <time>2019-08-28T09:37:37Z</time>
      </trkpt>
      <trkpt lat="44.3454" lon="2.00004">
        <ele>365.809</ele>
        <time>2019-08-28T09:37:42Z</time>
      </trkpt>
      <trkpt lat="44.34556" lon="1.99974">
        <ele>365.237</ele>
        <time>2019-08-28T09:37:47Z</time>
      </trkpt>
      <trkpt lat="44.34571" lon="1.99943">
        <ele>363.677</ele>
        <time>2019-08-28T09:37:52Z</time>
      </trkpt>
      <trkpt lat="44.34583" lon="1.99897">
        <ele>363.674</ele>
        <time>2019-08-28T09:37:58Z</time>
      </trkpt>
      <trkpt lat="44.34595" lon="1.99848">
        <ele>362.975</ele>
        <time>2019-08-28T09:38:04Z</time>
      </trkpt>
      <trkpt lat="44.34605" lon="1.99805">
        <ele>362.377</ele>
        <time>2019-08-28T09:38:09Z</time>
      </trkpt>
      <trkpt lat="44.34616" lon="1.99757">
        <ele>361.6</ele>
        <time>2019-08-28T09:38:15Z</time>
      </trkpt>
      <trkpt lat="44.34635" lon="1.99694">
        <ele>358.697</ele>
        <time>2019-08-28T09:38:20Z</time>
      </trkpt>
      <trkpt lat="44.34664" lon="1.99627">
        <ele>356.042</ele>
        <time>2019-08-28T09:38:26Z</time>
      </trkpt>
      <trkpt lat="44.34697" lon="1.99563">
        <ele>352.053</ele>
        <time>2019-08-28T09:38:32Z</time>
      </trkpt>
      <trkpt lat="44.34736" lon="1.9948">
        <ele>347.07</ele>
        <time>2019-08-28T09:38:38Z</time>
      </trkpt>
      <trkpt lat="44.34773" lon="1.99409">
        <ele>344.643</ele>
        <time>2019-08-28T09:38:43Z</time>
      </trkpt>
      <trkpt lat="44.3481" lon="1.99343">
        <ele>343.074</ele>
        <time>2019-08-28T09:38:49Z</time>
      </trkpt>
      <trkpt lat="44.34847" lon="1.993">
        <ele>340.696</ele>
        <time>2019-08-28T09:38:55Z</time>
      </trkpt>
      <trkpt lat="44.34872" lon="1.99266">
        <ele>337.943</ele>
        <time>2019-08-28T09:39:01Z</time>
      </trkpt>
      <trkpt lat="44.34887" lon="1.99236">
        <ele>337.177</ele>
        <time>2019-08-28T09:39:06Z</time>
      </trkpt>
      <trkpt lat="44.34897" lon="1.99207">
        <ele>335.551</ele>
        <time>2019-08-28T09:39:11Z</time>
      </trkpt>
      <trkpt lat="44.34904" lon="1.99178">
        <ele>335.711</ele>
        <time>2019-08-28T09:39:16Z</time>
      </trkpt>
      <trkpt lat="44.34913" lon="1.99142">
        <ele>335.553</ele>
        <time>2019-08-28T09:39:22Z</time>
      </trkpt>
      <trkpt lat="44.34922" lon="1.99112">
        <ele>336.025</ele>
        <time>2019-08-28T09:39:28Z</time>
      </trkpt>
      <trkpt lat="44.34924" lon="1.99096">
        <ele>338.691</ele>
        <time>2019-08-28T09:40:04Z</time>
      </trkpt>
      <trkpt lat="44.34921" lon="1.99076">
        <ele>341.89</ele>
        <time>2019-08-28T09:40:09Z</time>
      </trkpt>
      <trkpt lat="44.3492" lon="1.99059">
        <ele>343.542</ele>
        <time>2019-08-28T09:40:15Z</time>
      </trkpt>
      <trkpt lat="44.34921" lon="1.99035">
        <ele>344.96</ele>
        <time>2019-08-28T09:40:20Z</time>
      </trkpt>
      <trkpt lat="44.34924" lon="1.99015">
        <ele>345.798</ele>
        <time>2019-08-28T09:40:26Z</time>
      </trkpt>
      <trkpt lat="44.34926" lon="1.98985">
        <ele>346.994</ele>
        <time>2019-08-28T09:40:32Z</time>
      </trkpt>
      <trkpt lat="44.34927" lon="1.98962">
        <ele>348.073</ele>
        <time>2019-08-28T09:40:37Z</time>
      </trkpt>
      <trkpt lat="44.34929" lon="1.98932">
        <ele>349.112</ele>
        <time>2019-08-28T09:40:44Z</time>
      </trkpt>
      <trkpt lat="44.34931" lon="1.98905">
        <ele>348.841</ele>
        <time>2019-08-28T09:40:49Z</time>
      </trkpt>
      <trkpt lat="44.34933" lon="1.98879">
        <ele>347.882</ele>
        <time>2019-08-28T09:40:54Z</time>
      </trkpt>
      <trkpt lat="44.34935" lon="1.98852">
        <ele>347.76</ele>
        <time>2019-08-28T09:41:00Z</time>
      </trkpt>
      <trkpt lat="44.34935" lon="1.98829">
        <ele>348.208</ele>
        <time>2019-08-28T09:41:05Z</time>
      </trkpt>
      <trkpt lat="44.34934" lon="1.98804">
        <ele>348.735</ele>
        <time>2019-08-28T09:41:11Z</time>
      </trkpt>
      <trkpt lat="44.34933" lon="1.98784">
        <ele>349.117</ele>
        <time>2019-08-28T09:41:17Z</time>
      </trkpt>
      <trkpt lat="44.3493" lon="1.98772">
        <ele>350.269</ele>
        <time>2019-08-28T09:41:22Z</time>
      </trkpt>
      <trkpt lat="44.34929" lon="1.98748">
        <ele>349.767</ele>
        <time>2019-08-28T09:41:29Z</time>
      </trkpt>
      <trkpt lat="44.34929" lon="1.98718">
        <ele>349.355</ele>
        <time>2019-08-28T09:41:34Z</time>
      </trkpt>
      <trkpt lat="44.34931" lon="1.98696">
        <ele>349.757</ele>
        <time>2019-08-28T09:41:40Z</time>
      </trkpt>
      <trkpt lat="44.3493" lon="1.98676">
        <ele>349.568</ele>
        <time>2019-08-28T09:41:46Z</time>
      </trkpt>
      <trkpt lat="44.34932" lon="1.98664">
        <ele>349.426</ele>
        <time>2019-08-28T09:41:51Z</time>
      </trkpt>
      <trkpt lat="44.34939" lon="1.98654">
        <ele>346.421</ele>
        <time>2019-08-28T09:42:05Z</time>
      </trkpt>
      <trkpt lat="44.3494" lon="1.98641">
        <ele>342.593</ele>
        <time>2019-08-28T09:42:23Z</time>
      </trkpt>
      <trkpt lat="44.34939" lon="1.98626">
        <ele>338.954</ele>
        <time>2019-08-28T09:42:29Z</time>
      </trkpt>
      <trkpt lat="44.34938" lon="1.98612">
        <ele>335.369</ele>
        <time>2019-08-28T09:42:34Z</time>
      </trkpt>
      <trkpt lat="44.34937" lon="1.98597">
        <ele>332.923</ele>
        <time>2019-08-28T09:42:40Z</time>
      </trkpt>
      <trkpt lat="44.34937" lon="1.98583">
        <ele>331.95</ele>
        <time>2019-08-28T09:42:46Z</time>
      </trkpt>
      <trkpt lat="44.34937" lon="1.98569">
        <ele>332.384</ele>
        <time>2019-08-28T09:43:06Z</time>
      </trkpt>
      <trkpt lat="44.34933" lon="1.98557">
        <ele>331.606</ele>
        <time>2019-08-28T09:43:41Z</time>
      </trkpt>
      <trkpt lat="44.34926" lon="1.9854">
        <ele>332.155</ele>
        <time>2019-08-28T09:43:48Z</time>
      </trkpt>
      <trkpt lat="44.34918" lon="1.98526">
        <ele>331.473</ele>
        <time>2019-08-28T09:43:54Z</time>
      </trkpt>
      <trkpt lat="44.34911" lon="1.98512">
        <ele>332.52</ele>
        <time>2019-08-28T09:43:59Z</time>
      </trkpt>
      <trkpt lat="44.34906" lon="1.98489">
        <ele>331.01</ele>
        <time>2019-08-28T09:44:04Z</time>
      </trkpt>
      <trkpt lat="44.34903" lon="1.98474">
        <ele>331.446</ele>
        <time>2019-08-28T09:44:09Z</time>
      </trkpt>
      <trkpt lat="44.34898" lon="1.9846">
        <ele>333.713</ele>
        <time>2019-08-28T09:44:15Z</time>
      </trkpt>
      <trkpt lat="44.34889" lon="1.98448">
        <ele>335.75</ele>
        <time>2019-08-28T09:44:20Z</time>
      </trkpt>
      <trkpt lat="44.34879" lon="1.9844">
        <ele>337.095</ele>
        <time>2019-08-28T09:44:26Z</time>
      </trkpt>
      <trkpt lat="44.34868" lon="1.98431">
        <ele>339.988</ele>
        <time>2019-08-28T09:44:31Z</time>
      </trkpt>
      <trkpt lat="44.34864" lon="1.98419">
        <ele>341.831</ele>
        <time>2019-08-28T09:44:38Z</time>
      </trkpt>
      <trkpt lat="44.34857" lon="1.98404">
        <ele>342.411</ele>
        <time>2019-08-28T09:44:44Z</time>
      </trkpt>
      <trkpt lat="44.34851" lon="1.98391">
        <ele>342.73</ele>
        <time>2019-08-28T09:44:49Z</time>
      </trkpt>
      <trkpt lat="44.34845" lon="1.98372">
        <ele>343.375</ele>
        <time>2019-08-28T09:44:54Z</time>
      </trkpt>
      <trkpt lat="44.34841" lon="1.98354">
        <ele>343.7</ele>
        <time>2019-08-28T09:45:01Z</time>
      </trkpt>
      <trkpt lat="44.34837" lon="1.98341">
        <ele>344.536</ele>
        <time>2019-08-28T09:45:07Z</time>
      </trkpt>
      <trkpt lat="44.34832" lon="1.98326">
        <ele>347.12</ele>
        <time>2019-08-28T09:45:12Z</time>
      </trkpt>
      <trkpt lat="44.34823" lon="1.98301">
        <ele>350.154</ele>
        <time>2019-08-28T09:45:17Z</time>
      </trkpt>
      <trkpt lat="44.34817" lon="1.98283">
        <ele>351.153</ele>
        <time>2019-08-28T09:45:22Z</time>
      </trkpt>
      <trkpt lat="44.34809" lon="1.98261">
        <ele>352.724</ele>
        <time>2019-08-28T09:45:29Z</time>
      </trkpt>
      <trkpt lat="44.34803" lon="1.9824">
        <ele>354.335</ele>
        <time>2019-08-28T09:45:34Z</time>
      </trkpt>
      <trkpt lat="44.34795" lon="1.98219">
        <ele>355.477</ele>
        <time>2019-08-28T09:45:40Z</time>
      </trkpt>
      <trkpt lat="44.34788" lon="1.98198">
        <ele>357.504</ele>
        <time>2019-08-28T09:45:46Z</time>
      </trkpt>
      <trkpt lat="44.34782" lon="1.98178">
        <ele>359.15</ele>
        <time>2019-08-28T09:45:52Z</time>
      </trkpt>
      <trkpt lat="44.34776" lon="1.98157">
        <ele>361.139</ele>
        <time>2019-08-28T09:45:57Z</time>
      </trkpt>
      <trkpt lat="44.34769" lon="1.98136">
        <ele>361.733</ele>
        <time>2019-08-28T09:46:03Z</time>
      </trkpt>
      <trkpt lat="44.34761" lon="1.98112">
        <ele>363.36</ele>
        <time>2019-08-28T09:46:08Z</time>
      </trkpt>
      <trkpt lat="44.34755" lon="1.98092">
        <ele>364.849</ele>
        <time>2019-08-28T09:46:14Z</time>
      </trkpt>
      <trkpt lat="44.34747" lon="1.98068">
        <ele>365.299</ele>
        <time>2019-08-28T09:46:19Z</time>
      </trkpt>
      <trkpt lat="44.34738" lon="1.98047">
        <ele>366.576</ele>
        <time>2019-08-28T09:46:24Z</time>
      </trkpt>
      <trkpt lat="44.34735" lon="1.98033">
        <ele>366.976</ele>
        <time>2019-08-28T09:46:36Z</time>
      </trkpt>
      <trkpt lat="44.34743" lon="1.98022">
        <ele>367.292</ele>
        <time>2019-08-28T09:46:41Z</time>
      </trkpt>
      <trkpt lat="44.34753" lon="1.9801">
        <ele>367.881</ele>
        <time>2019-08-28T09:46:47Z</time>
      </trkpt>
      <trkpt lat="44.34764" lon="1.98">
        <ele>367.621</ele>
        <time>2019-08-28T09:46:52Z</time>
      </trkpt>
      <trkpt lat="44.34781" lon="1.97985">
        <ele>366.515</ele>
        <time>2019-08-28T09:46:57Z</time>
      </trkpt>
      <trkpt lat="44.34799" lon="1.97968">
        <ele>366.068</ele>
        <time>2019-08-28T09:47:03Z</time>
      </trkpt>
      <trkpt lat="44.34814" lon="1.97953">
        <ele>365.593</ele>
        <time>2019-08-28T09:47:09Z</time>
      </trkpt>
      <trkpt lat="44.34835" lon="1.97929">
        <ele>366.343</ele>
        <time>2019-08-28T09:47:15Z</time>
      </trkpt>
      <trkpt lat="44.34835" lon="1.97905">
        <ele>366.696</ele>
        <time>2019-08-28T09:47:20Z</time>
      </trkpt>
      <trkpt lat="44.34833" lon="1.97883">
        <ele>366.443</ele>
        <time>2019-08-28T09:47:25Z</time>
      </trkpt>
      <trkpt lat="44.34839" lon="1.97861">
        <ele>366.176</ele>
        <time>2019-08-28T09:47:31Z</time>
      </trkpt>
      <trkpt lat="44.34859" lon="1.97856">
        <ele>365.911</ele>
        <time>2019-08-28T09:47:36Z</time>
      </trkpt>
      <trkpt lat="44.34871" lon="1.97835">
        <ele>368.201</ele>
        <time>2019-08-28T09:47:42Z</time>
      </trkpt>
      <trkpt lat="44.34874" lon="1.97811">
        <ele>368.488</ele>
        <time>2019-08-28T09:47:48Z</time>
      </trkpt>
      <trkpt lat="44.34877" lon="1.97783">
        <ele>368.993</ele>
        <time>2019-08-28T09:47:54Z</time>
      </trkpt>
      <trkpt lat="44.34877" lon="1.97754">
        <ele>368.468</ele>
        <time>2019-08-28T09:47:59Z</time>
      </trkpt>
      <trkpt lat="44.34877" lon="1.97724">
        <ele>367.803</ele>
        <time>2019-08-28T09:48:04Z</time>
      </trkpt>
      <trkpt lat="44.34879" lon="1.97687">
        <ele>366.442</ele>
        <time>2019-08-28T09:48:11Z</time>
      </trkpt>
      <trkpt lat="44.34876" lon="1.97656">
        <ele>364.157</ele>
        <time>2019-08-28T09:48:17Z</time>
      </trkpt>
      <trkpt lat="44.34874" lon="1.97627">
        <ele>362.795</ele>
        <time>2019-08-28T09:48:23Z</time>
      </trkpt>
      <trkpt lat="44.34873" lon="1.97599">
        <ele>363.539</ele>
        <time>2019-08-28T09:48:29Z</time>
      </trkpt>
      <trkpt lat="44.34873" lon="1.97574">
        <ele>363.974</ele>
        <time>2019-08-28T09:48:34Z</time>
      </trkpt>
      <trkpt lat="44.34875" lon="1.97554">
        <ele>364.636</ele>
        <time>2019-08-28T09:48:40Z</time>
      </trkpt>
      <trkpt lat="44.34876" lon="1.9753">
        <ele>366.169</ele>
        <time>2019-08-28T09:48:45Z</time>
      </trkpt>
      <trkpt lat="44.34856" lon="1.97526">
        <ele>368.177</ele>
        <time>2019-08-28T09:48:51Z</time>
      </trkpt>
      <trkpt lat="44.34839" lon="1.97522">
        <ele>368.713</ele>
        <time>2019-08-28T09:48:57Z</time>
      </trkpt>
      <trkpt lat="44.34819" lon="1.97518">
        <ele>369.331</ele>
        <time>2019-08-28T09:49:02Z</time>
      </trkpt>
      <trkpt lat="44.34798" lon="1.97516">
        <ele>369.902</ele>
        <time>2019-08-28T09:49:08Z</time>
      </trkpt>
      <trkpt lat="44.34782" lon="1.97518">
        <ele>370.909</ele>
        <time>2019-08-28T09:49:14Z</time>
      </trkpt>
      <trkpt lat="44.34766" lon="1.97525">
        <ele>371.912</ele>
        <time>2019-08-28T09:49:19Z</time>
      </trkpt>
      <trkpt lat="44.34751" lon="1.97537">
        <ele>373.468</ele>
        <time>2019-08-28T09:49:24Z</time>
      </trkpt>
      <trkpt lat="44.34737" lon="1.97548">
        <ele>374.796</ele>
        <time>2019-08-28T09:49:30Z</time>
      </trkpt>
      <trkpt lat="44.3472" lon="1.97561">
        <ele>377.01</ele>
        <time>2019-08-28T09:49:35Z</time>
      </trkpt>
      <trkpt lat="44.34706" lon="1.97572">
        <ele>378.147</ele>
        <time>2019-08-28T09:49:40Z</time>
      </trkpt>
      <trkpt lat="44.34689" lon="1.97583">
        <ele>379.921</ele>
        <time>2019-08-28T09:49:45Z</time>
      </trkpt>
      <trkpt lat="44.34673" lon="1.97592">
        <ele>381.515</ele>
        <time>2019-08-28T09:49:50Z</time>
      </trkpt>
      <trkpt lat="44.34653" lon="1.97603">
        <ele>382.61</ele>
        <time>2019-08-28T09:49:56Z</time>
      </trkpt>
      <trkpt lat="44.34634" lon="1.97616">
        <ele>382.276</ele>
        <time>2019-08-28T09:50:02Z</time>
      </trkpt>
      <trkpt lat="44.34617" lon="1.97629">
        <ele>381.847</ele>
        <time>2019-08-28T09:50:07Z</time>
      </trkpt>
      <trkpt lat="44.34591" lon="1.97644">
        <ele>380.565</ele>
        <time>2019-08-28T09:50:13Z</time>
      </trkpt>
      <trkpt lat="44.34566" lon="1.97655">
        <ele>380.63</ele>
        <time>2019-08-28T09:50:19Z</time>
      </trkpt>
      <trkpt lat="44.34543" lon="1.97662">
        <ele>380.193</ele>
        <time>2019-08-28T09:50:24Z</time>
      </trkpt>
      <trkpt lat="44.34512" lon="1.97669">
        <ele>379.589</ele>
        <time>2019-08-28T09:50:30Z</time>
      </trkpt>
      <trkpt lat="44.34477" lon="1.97676">
        <ele>378.141</ele>
        <time>2019-08-28T09:50:36Z</time>
      </trkpt>
      <trkpt lat="44.34448" lon="1.97679">
        <ele>377.319</ele>
        <time>2019-08-28T09:50:42Z</time>
      </trkpt>
      <trkpt lat="44.34417" lon="1.97679">
        <ele>376.309</ele>
        <time>2019-08-28T09:50:47Z</time>
      </trkpt>
      <trkpt lat="44.3439" lon="1.97675">
        <ele>374.638</ele>
        <time>2019-08-28T09:50:52Z</time>
      </trkpt>
      <trkpt lat="44.34359" lon="1.97664">
        <ele>372.717</ele>
        <time>2019-08-28T09:50:57Z</time>
      </trkpt>
      <trkpt lat="44.34332" lon="1.97651">
        <ele>371.822</ele>
        <time>2019-08-28T09:51:02Z</time>
      </trkpt>
      <trkpt lat="44.34317" lon="1.97643">
        <ele>370.844</ele>
        <time>2019-08-28T09:51:07Z</time>
      </trkpt>
      <trkpt lat="44.34309" lon="1.97634">
        <ele>370.926</ele>
        <time>2019-08-28T09:51:34Z</time>
      </trkpt>
      <trkpt lat="44.3429" lon="1.97618">
        <ele>370.813</ele>
        <time>2019-08-28T09:51:39Z</time>
      </trkpt>
      <trkpt lat="44.3427" lon="1.97588">
        <ele>368.842</ele>
        <time>2019-08-28T09:51:45Z</time>
      </trkpt>
      <trkpt lat="44.34262" lon="1.97577">
        <ele>365.96</ele>
        <time>2019-08-28T09:51:51Z</time>
      </trkpt>
      <trkpt lat="44.34246" lon="1.9758">
        <ele>364.355</ele>
        <time>2019-08-28T09:51:57Z</time>
      </trkpt>
      <trkpt lat="44.34235" lon="1.97588">
        <ele>362.259</ele>
        <time>2019-08-28T09:52:02Z</time>
      </trkpt>
      <trkpt lat="44.34213" lon="1.97608">
        <ele>360.415</ele>
        <time>2019-08-28T09:52:12Z</time>
      </trkpt>
      <trkpt lat="44.34198" lon="1.97621">
        <ele>359.2</ele>
        <time>2019-08-28T09:52:18Z</time>
      </trkpt>
      <trkpt lat="44.34177" lon="1.97639">
        <ele>357.022</ele>
        <time>2019-08-28T09:52:23Z</time>
      </trkpt>
      <trkpt lat="44.34158" lon="1.97659">
        <ele>357.022</ele>
        <time>2019-08-28T09:52:29Z</time>
      </trkpt>
      <trkpt lat="44.3414" lon="1.97678">
        <ele>356.196</ele>
        <time>2019-08-28T09:52:34Z</time>
      </trkpt>
      <trkpt lat="44.34126" lon="1.97692">
        <ele>355.857</ele>
        <time>2019-08-28T09:52:39Z</time>
      </trkpt>
      <trkpt lat="44.3411" lon="1.97711">
        <ele>355.169</ele>
        <time>2019-08-28T09:52:46Z</time>
      </trkpt>
      <trkpt lat="44.34095" lon="1.9773">
        <ele>354.993</ele>
        <time>2019-08-28T09:52:51Z</time>
      </trkpt>
      <trkpt lat="44.3408" lon="1.97743">
        <ele>355.06</ele>
        <time>2019-08-28T09:52:56Z</time>
      </trkpt>
      <trkpt lat="44.34069" lon="1.97759">
        <ele>355.565</ele>
        <time>2019-08-28T09:53:02Z</time>
      </trkpt>
      <trkpt lat="44.34059" lon="1.97773">
        <ele>356.068</ele>
        <time>2019-08-28T09:53:08Z</time>
      </trkpt>
      <trkpt lat="44.34045" lon="1.97795">
        <ele>356.523</ele>
        <time>2019-08-28T09:53:13Z</time>
      </trkpt>
      <trkpt lat="44.34035" lon="1.97815">
        <ele>356.308</ele>
        <time>2019-08-28T09:53:19Z</time>
      </trkpt>
      <trkpt lat="44.34024" lon="1.97838">
        <ele>357.588</ele>
        <time>2019-08-28T09:53:25Z</time>
      </trkpt>
      <trkpt lat="44.34011" lon="1.9786">
        <ele>360.418</ele>
        <time>2019-08-28T09:53:31Z</time>
      </trkpt>
      <trkpt lat="44.33999" lon="1.97881">
        <ele>362.503</ele>
        <time>2019-08-28T09:53:36Z</time>
      </trkpt>
      <trkpt lat="44.33992" lon="1.97891">
        <ele>362.562</ele>
        <time>2019-08-28T09:56:46Z</time>
      </trkpt>
      <trkpt lat="44.33981" lon="1.97911">
        <ele>362.921</ele>
        <time>2019-08-28T09:56:51Z</time>
      </trkpt>
      <trkpt lat="44.33965" lon="1.97932">
        <ele>362.328</ele>
        <time>2019-08-28T09:56:57Z</time>
      </trkpt>
      <trkpt lat="44.33951" lon="1.97954">
        <ele>362.849</ele>
        <time>2019-08-28T09:57:03Z</time>
      </trkpt>
      <trkpt lat="44.3394" lon="1.97977">
        <ele>363.962</ele>
        <time>2019-08-28T09:57:09Z</time>
      </trkpt>
      <trkpt lat="44.33932" lon="1.97998">
        <ele>364.425</ele>
        <time>2019-08-28T09:57:14Z</time>
      </trkpt>
      <trkpt lat="44.33921" lon="1.98024">
        <ele>365.386</ele>
        <time>2019-08-28T09:57:20Z</time>
      </trkpt>
      <trkpt lat="44.33905" lon="1.98047">
        <ele>366.234</ele>
        <time>2019-08-28T09:57:26Z</time>
      </trkpt>
      <trkpt lat="44.33884" lon="1.9807">
        <ele>365.494</ele>
        <time>2019-08-28T09:57:32Z</time>
      </trkpt>
      <trkpt lat="44.33863" lon="1.98097">
        <ele>364.041</ele>
        <time>2019-08-28T09:57:38Z</time>
      </trkpt>
      <trkpt lat="44.33847" lon="1.98128">
        <ele>363.66</ele>
        <time>2019-08-28T09:57:44Z</time>
      </trkpt>
      <trkpt lat="44.33833" lon="1.98151">
        <ele>363.533</ele>
        <time>2019-08-28T09:57:50Z</time>
      </trkpt>
      <trkpt lat="44.33822" lon="1.98167">
        <ele>362.616</ele>
        <time>2019-08-28T09:57:55Z</time>
      </trkpt>
      <trkpt lat="44.33812" lon="1.98187">
        <ele>362.933</ele>
        <time>2019-08-28T09:58:00Z</time>
      </trkpt>
      <trkpt lat="44.33799" lon="1.98211">
        <ele>363.972</ele>
        <time>2019-08-28T09:58:06Z</time>
      </trkpt>
      <trkpt lat="44.33789" lon="1.98229">
        <ele>363.618</ele>
        <time>2019-08-28T09:58:11Z</time>
      </trkpt>
      <trkpt lat="44.33779" lon="1.98226">
        <ele>361.621</ele>
        <time>2019-08-28T09:58:26Z</time>
      </trkpt>
      <trkpt lat="44.33762" lon="1.98203">
        <ele>359.779</ele>
        <time>2019-08-28T09:58:31Z</time>
      </trkpt>
      <trkpt lat="44.3374" lon="1.98175">
        <ele>358.914</ele>
        <time>2019-08-28T09:58:37Z</time>
      </trkpt>
      <trkpt lat="44.33728" lon="1.98162">
        <ele>358.353</ele>
        <time>2019-08-28T09:58:42Z</time>
      </trkpt>
      <trkpt lat="44.33717" lon="1.98149">
        <ele>358.383</ele>
        <time>2019-08-28T09:58:48Z</time>
      </trkpt>
      <trkpt lat="44.33702" lon="1.98135">
        <ele>357.965</ele>
        <time>2019-08-28T09:58:53Z</time>
      </trkpt>
      <trkpt lat="44.33693" lon="1.9812">
        <ele>358.105</ele>
        <time>2019-08-28T09:58:58Z</time>
      </trkpt>
      <trkpt lat="44.33681" lon="1.98101">
        <ele>358.538</ele>
        <time>2019-08-28T09:59:04Z</time>
      </trkpt>
      <trkpt lat="44.3367" lon="1.9808">
        <ele>359.042</ele>
        <time>2019-08-28T09:59:10Z</time>
      </trkpt>
      <trkpt lat="44.33658" lon="1.98057">
        <ele>359.567</ele>
        <time>2019-08-28T09:59:16Z</time>
      </trkpt>
      <trkpt lat="44.33649" lon="1.98031">
        <ele>360.012</ele>
        <time>2019-08-28T09:59:22Z</time>
      </trkpt>
      <trkpt lat="44.33641" lon="1.98016">
        <ele>362.203</ele>
        <time>2019-08-28T09:59:28Z</time>
      </trkpt>
      <trkpt lat="44.33625" lon="1.97999">
        <ele>363.345</ele>
        <time>2019-08-28T09:59:34Z</time>
      </trkpt>
      <trkpt lat="44.33611" lon="1.9799">
        <ele>364.521</ele>
        <time>2019-08-28T09:59:39Z</time>
      </trkpt>
      <trkpt lat="44.33596" lon="1.97977">
        <ele>365.773</ele>
        <time>2019-08-28T09:59:45Z</time>
      </trkpt>
      <trkpt lat="44.33581" lon="1.97961">
        <ele>366.009</ele>
        <time>2019-08-28T09:59:50Z</time>
      </trkpt>
      <trkpt lat="44.33562" lon="1.97944">
        <ele>366.561</ele>
        <time>2019-08-28T09:59:55Z</time>
      </trkpt>
      <trkpt lat="44.33545" lon="1.97928">
        <ele>365.025</ele>
        <time>2019-08-28T10:00:01Z</time>
      </trkpt>
      <trkpt lat="44.3353" lon="1.97918">
        <ele>364.799</ele>
        <time>2019-08-28T10:00:06Z</time>
      </trkpt>
      <trkpt lat="44.3349" lon="1.97881">
        <ele>360.576</ele>
        <time>2019-08-28T10:00:19Z</time>
      </trkpt>
      <trkpt lat="44.33471" lon="1.97859">
        <ele>358.958</ele>
        <time>2019-08-28T10:00:25Z</time>
      </trkpt>
      <trkpt lat="44.33452" lon="1.97835">
        <ele>356.995</ele>
        <time>2019-08-28T10:00:31Z</time>
      </trkpt>
      <trkpt lat="44.33437" lon="1.97825">
        <ele>355.442</ele>
        <time>2019-08-28T10:00:36Z</time>
      </trkpt>
      <trkpt lat="44.33423" lon="1.97814">
        <ele>353.739</ele>
        <time>2019-08-28T10:00:41Z</time>
      </trkpt>
      <trkpt lat="44.33401" lon="1.97796">
        <ele>351.981</ele>
        <time>2019-08-28T10:00:47Z</time>
      </trkpt>
      <trkpt lat="44.33382" lon="1.97787">
        <ele>348.771</ele>
        <time>2019-08-28T10:00:53Z</time>
      </trkpt>
      <trkpt lat="44.33361" lon="1.97777">
        <ele>345.645</ele>
        <time>2019-08-28T10:00:59Z</time>
      </trkpt>
      <trkpt lat="44.3334" lon="1.9777">
        <ele>342.497</ele>
        <time>2019-08-28T10:01:05Z</time>
      </trkpt>
      <trkpt lat="44.33321" lon="1.97763">
        <ele>339.001</ele>
        <time>2019-08-28T10:01:11Z</time>
      </trkpt>
      <trkpt lat="44.33302" lon="1.97761">
        <ele>335.707</ele>
        <time>2019-08-28T10:01:17Z</time>
      </trkpt>
      <trkpt lat="44.33279" lon="1.97755">
        <ele>330.91</ele>
        <time>2019-08-28T10:01:23Z</time>
      </trkpt>
      <trkpt lat="44.33261" lon="1.97752">
        <ele>326.887</ele>
        <time>2019-08-28T10:01:28Z</time>
      </trkpt>
      <trkpt lat="44.33242" lon="1.97749">
        <ele>322.924</ele>
        <time>2019-08-28T10:01:34Z</time>
      </trkpt>
      <trkpt lat="44.33226" lon="1.97744">
        <ele>320.3</ele>
        <time>2019-08-28T10:01:39Z</time>
      </trkpt>
      <trkpt lat="44.33205" lon="1.97738">
        <ele>317.358</ele>
        <time>2019-08-28T10:01:44Z</time>
      </trkpt>
      <trkpt lat="44.33181" lon="1.97739">
        <ele>314.18</ele>
        <time>2019-08-28T10:01:50Z</time>
      </trkpt>
      <trkpt lat="44.3317" lon="1.97748">
        <ele>313.838</ele>
        <time>2019-08-28T10:01:55Z</time>
      </trkpt>
      <trkpt lat="44.33155" lon="1.97753">
        <ele>311.799</ele>
        <time>2019-08-28T10:02:01Z</time>
      </trkpt>
      <trkpt lat="44.33146" lon="1.97745">
        <ele>311.006</ele>
        <time>2019-08-28T10:02:39Z</time>
      </trkpt>
      <trkpt lat="44.33136" lon="1.9772">
        <ele>310.877</ele>
        <time>2019-08-28T10:02:44Z</time>
      </trkpt>
      <trkpt lat="44.33122" lon="1.97686">
        <ele>310.108</ele>
        <time>2019-08-28T10:02:49Z</time>
      </trkpt>
      <trkpt lat="44.33097" lon="1.97669">
        <ele>308.694</ele>
        <time>2019-08-28T10:02:55Z</time>
      </trkpt>
      <trkpt lat="44.33064" lon="1.97658">
        <ele>307.97</ele>
        <time>2019-08-28T10:03:01Z</time>
      </trkpt>
      <trkpt lat="44.33033" lon="1.97648">
        <ele>307.203</ele>
        <time>2019-08-28T10:03:06Z</time>
      </trkpt>
      <trkpt lat="44.3301" lon="1.97629">
        <ele>305.98</ele>
        <time>2019-08-28T10:03:11Z</time>
      </trkpt>
      <trkpt lat="44.32993" lon="1.97597">
        <ele>304.693</ele>
        <time>2019-08-28T10:03:17Z</time>
      </trkpt>
      <trkpt lat="44.32977" lon="1.97555">
        <ele>301.802</ele>
        <time>2019-08-28T10:03:22Z</time>
      </trkpt>
      <trkpt lat="44.32958" lon="1.97517">
        <ele>299.018</ele>
        <time>2019-08-28T10:03:27Z</time>
      </trkpt>
      <trkpt lat="44.32939" lon="1.97496">
        <ele>296.076</ele>
        <time>2019-08-28T10:03:32Z</time>
      </trkpt>
      <trkpt lat="44.32914" lon="1.97509">
        <ele>293.608</ele>
        <time>2019-08-28T10:03:37Z</time>
      </trkpt>
      <trkpt lat="44.32878" lon="1.97536">
        <ele>289.995</ele>
        <time>2019-08-28T10:03:43Z</time>
      </trkpt>
      <trkpt lat="44.32836" lon="1.97549">
        <ele>289.063</ele>
        <time>2019-08-28T10:03:49Z</time>
      </trkpt>
      <trkpt lat="44.32807" lon="1.97548">
        <ele>289.966</ele>
        <time>2019-08-28T10:03:54Z</time>
      </trkpt>
      <trkpt lat="44.32777" lon="1.97544">
        <ele>291.397</ele>
        <time>2019-08-28T10:04:00Z</time>
      </trkpt>
      <trkpt lat="44.32746" lon="1.97541">
        <ele>292.306</ele>
        <time>2019-08-28T10:04:06Z</time>
      </trkpt>
      <trkpt lat="44.32714" lon="1.97538">
        <ele>292.678</ele>
        <time>2019-08-28T10:04:13Z</time>
      </trkpt>
      <trkpt lat="44.32684" lon="1.97535">
        <ele>292.604</ele>
        <time>2019-08-28T10:04:19Z</time>
      </trkpt>
      <trkpt lat="44.32652" lon="1.97532">
        <ele>293.289</ele>
        <time>2019-08-28T10:04:24Z</time>
      </trkpt>
      <trkpt lat="44.32621" lon="1.97531">
        <ele>294.089</ele>
        <time>2019-08-28T10:04:30Z</time>
      </trkpt>
      <trkpt lat="44.32589" lon="1.97529">
        <ele>294.741</ele>
        <time>2019-08-28T10:04:36Z</time>
      </trkpt>
      <trkpt lat="44.32563" lon="1.97529">
        <ele>295.017</ele>
        <time>2019-08-28T10:04:41Z</time>
      </trkpt>
      <trkpt lat="44.32531" lon="1.97531">
        <ele>296.396</ele>
        <time>2019-08-28T10:04:47Z</time>
      </trkpt>
      <trkpt lat="44.325" lon="1.97535">
        <ele>298.193</ele>
        <time>2019-08-28T10:04:53Z</time>
      </trkpt>
      <trkpt lat="44.32481" lon="1.9755">
        <ele>298.386</ele>
        <time>2019-08-28T10:04:58Z</time>
      </trkpt>
      <trkpt lat="44.32454" lon="1.97564">
        <ele>299.26</ele>
        <time>2019-08-28T10:05:04Z</time>
      </trkpt>
      <trkpt lat="44.32425" lon="1.97568">
        <ele>301.838</ele>
        <time>2019-08-28T10:05:10Z</time>
      </trkpt>
      <trkpt lat="44.32402" lon="1.97575">
        <ele>304.413</ele>
        <time>2019-08-28T10:05:15Z</time>
      </trkpt>
      <trkpt lat="44.32376" lon="1.97585">
        <ele>307.543</ele>
        <time>2019-08-28T10:05:21Z</time>
      </trkpt>
      <trkpt lat="44.32349" lon="1.97595">
        <ele>310.048</ele>
        <time>2019-08-28T10:05:27Z</time>
      </trkpt>
      <trkpt lat="44.32324" lon="1.97604">
        <ele>312.587</ele>
        <time>2019-08-28T10:05:33Z</time>
      </trkpt>
      <trkpt lat="44.323" lon="1.97608">
        <ele>316.254</ele>
        <time>2019-08-28T10:05:39Z</time>
      </trkpt>
      <trkpt lat="44.32273" lon="1.97617">
        <ele>320.003</ele>
        <time>2019-08-28T10:05:45Z</time>
      </trkpt>
      <trkpt lat="44.32248" lon="1.97628">
        <ele>323.695</ele>
        <time>2019-08-28T10:05:51Z</time>
      </trkpt>
      <trkpt lat="44.32225" lon="1.97646">
        <ele>325.928</ele>
        <time>2019-08-28T10:05:56Z</time>
      </trkpt>
      <trkpt lat="44.32198" lon="1.97665">
        <ele>327.799</ele>
        <time>2019-08-28T10:06:02Z</time>
      </trkpt>
      <trkpt lat="44.32173" lon="1.9768">
        <ele>329.558</ele>
        <time>2019-08-28T10:06:08Z</time>
      </trkpt>
      <trkpt lat="44.32145" lon="1.97697">
        <ele>331.426</ele>
        <time>2019-08-28T10:06:14Z</time>
      </trkpt>
      <trkpt lat="44.32122" lon="1.97712">
        <ele>333.653</ele>
        <time>2019-08-28T10:06:19Z</time>
      </trkpt>
      <trkpt lat="44.321" lon="1.97739">
        <ele>333.905</ele>
        <time>2019-08-28T10:06:25Z</time>
      </trkpt>
      <trkpt lat="44.3208" lon="1.97769">
        <ele>335.797</ele>
        <time>2019-08-28T10:06:31Z</time>
      </trkpt>
      <trkpt lat="44.32063" lon="1.9779">
        <ele>337.205</ele>
        <time>2019-08-28T10:06:36Z</time>
      </trkpt>
      <trkpt lat="44.32036" lon="1.97791">
        <ele>340.001</ele>
        <time>2019-08-28T10:06:42Z</time>
      </trkpt>
      <trkpt lat="44.32027" lon="1.97823">
        <ele>343.337</ele>
        <time>2019-08-28T10:06:48Z</time>
      </trkpt>
      <trkpt lat="44.32043" lon="1.97852">
        <ele>344.917</ele>
        <time>2019-08-28T10:06:53Z</time>
      </trkpt>
      <trkpt lat="44.32062" lon="1.9786">
        <ele>347.42</ele>
        <time>2019-08-28T10:06:59Z</time>
      </trkpt>
      <trkpt lat="44.32074" lon="1.97894">
        <ele>351.747</ele>
        <time>2019-08-28T10:07:05Z</time>
      </trkpt>
      <trkpt lat="44.32085" lon="1.97931">
        <ele>354.872</ele>
        <time>2019-08-28T10:07:11Z</time>
      </trkpt>
      <trkpt lat="44.32081" lon="1.97966">
        <ele>358.362</ele>
        <time>2019-08-28T10:07:17Z</time>
      </trkpt>
      <trkpt lat="44.32066" lon="1.97999">
        <ele>361.001</ele>
        <time>2019-08-28T10:07:23Z</time>
      </trkpt>
      <trkpt lat="44.32041" lon="1.98022">
        <ele>362.854</ele>
        <time>2019-08-28T10:07:29Z</time>
      </trkpt>
      <trkpt lat="44.32018" lon="1.98038">
        <ele>363.912</ele>
        <time>2019-08-28T10:07:34Z</time>
      </trkpt>
      <trkpt lat="44.31996" lon="1.98055">
        <ele>364.988</ele>
        <time>2019-08-28T10:07:39Z</time>
      </trkpt>
      <trkpt lat="44.31972" lon="1.98083">
        <ele>366.566</ele>
        <time>2019-08-28T10:07:45Z</time>
      </trkpt>
      <trkpt lat="44.31952" lon="1.98113">
        <ele>368.644</ele>
        <time>2019-08-28T10:07:51Z</time>
      </trkpt>
      <trkpt lat="44.31933" lon="1.9814">
        <ele>370.99</ele>
        <time>2019-08-28T10:07:57Z</time>
      </trkpt>
      <trkpt lat="44.31914" lon="1.98169">
        <ele>372.392</ele>
        <time>2019-08-28T10:08:03Z</time>
      </trkpt>
      <trkpt lat="44.31902" lon="1.98201">
        <ele>373.973</ele>
        <time>2019-08-28T10:08:08Z</time>
      </trkpt>
      <trkpt lat="44.31891" lon="1.98238">
        <ele>375.524</ele>
        <time>2019-08-28T10:08:14Z</time>
      </trkpt>
      <trkpt lat="44.31889" lon="1.98274">
        <ele>377.116</ele>
        <time>2019-08-28T10:08:20Z</time>
      </trkpt>
      <trkpt lat="44.31891" lon="1.98298">
        <ele>379.312</ele>
        <time>2019-08-28T10:08:25Z</time>
      </trkpt>
      <trkpt lat="44.31885" lon="1.9832">
        <ele>381.118</ele>
        <time>2019-08-28T10:08:30Z</time>
      </trkpt>
      <trkpt lat="44.3188" lon="1.98346">
        <ele>384.415</ele>
        <time>2019-08-28T10:08:36Z</time>
      </trkpt>
      <trkpt lat="44.31874" lon="1.9837">
        <ele>385.424</ele>
        <time>2019-08-28T10:08:41Z</time>
      </trkpt>
      <trkpt lat="44.31866" lon="1.98402">
        <ele>387.041</ele>
        <time>2019-08-28T10:08:47Z</time>
      </trkpt>
      <trkpt lat="44.31844" lon="1.98423">
        <ele>388.684</ele>
        <time>2019-08-28T10:08:53Z</time>
      </trkpt>
      <trkpt lat="44.31825" lon="1.98433">
        <ele>390.348</ele>
        <time>2019-08-28T10:08:58Z</time>
      </trkpt>
      <trkpt lat="44.31812" lon="1.98438">
        <ele>391.569</ele>
        <time>2019-08-28T10:09:04Z</time>
      </trkpt>
      <trkpt lat="44.318" lon="1.98441">
        <ele>391.281</ele>
        <time>2019-08-28T10:20:19Z</time>
      </trkpt>
      <trkpt lat="44.31775" lon="1.98456">
        <ele>390.448</ele>
        <time>2019-08-28T10:20:24Z</time>
      </trkpt>
      <trkpt lat="44.31748" lon="1.98461">
        <ele>391.051</ele>
        <time>2019-08-28T10:20:30Z</time>
      </trkpt>
      <trkpt lat="44.31715" lon="1.98462">
        <ele>391.286</ele>
        <time>2019-08-28T10:20:35Z</time>
      </trkpt>
      <trkpt lat="44.31691" lon="1.98464">
        <ele>390.908</ele>
        <time>2019-08-28T10:20:40Z</time>
      </trkpt>
      <trkpt lat="44.31667" lon="1.98466">
        <ele>391.329</ele>
        <time>2019-08-28T10:20:46Z</time>
      </trkpt>
      <trkpt lat="44.31645" lon="1.98478">
        <ele>392.105</ele>
        <time>2019-08-28T10:20:51Z</time>
      </trkpt>
      <trkpt lat="44.31623" lon="1.98511">
        <ele>393.696</ele>
        <time>2019-08-28T10:20:57Z</time>
      </trkpt>
      <trkpt lat="44.31608" lon="1.98564">
        <ele>393.605</ele>
        <time>2019-08-28T10:21:03Z</time>
      </trkpt>
      <trkpt lat="44.31588" lon="1.98626">
        <ele>392.154</ele>
        <time>2019-08-28T10:21:09Z</time>
      </trkpt>
      <trkpt lat="44.31568" lon="1.98687">
        <ele>390.316</ele>
        <time>2019-08-28T10:21:15Z</time>
      </trkpt>
      <trkpt lat="44.31547" lon="1.9872">
        <ele>389.413</ele>
        <time>2019-08-28T10:21:20Z</time>
      </trkpt>
      <trkpt lat="44.31522" lon="1.98748">
        <ele>389.161</ele>
        <time>2019-08-28T10:21:27Z</time>
      </trkpt>
      <trkpt lat="44.31504" lon="1.98791">
        <ele>386.985</ele>
        <time>2019-08-28T10:21:32Z</time>
      </trkpt>
      <trkpt lat="44.31487" lon="1.98845">
        <ele>381.99</ele>
        <time>2019-08-28T10:21:39Z</time>
      </trkpt>
      <trkpt lat="44.31458" lon="1.98894">
        <ele>378.783</ele>
        <time>2019-08-28T10:21:45Z</time>
      </trkpt>
      <trkpt lat="44.3142" lon="1.98937">
        <ele>375.527</ele>
        <time>2019-08-28T10:21:50Z</time>
      </trkpt>
      <trkpt lat="44.31386" lon="1.98968">
        <ele>372.278</ele>
        <time>2019-08-28T10:21:56Z</time>
      </trkpt>
      <trkpt lat="44.31357" lon="1.98993">
        <ele>370.262</ele>
        <time>2019-08-28T10:22:01Z</time>
      </trkpt>
      <trkpt lat="44.3132" lon="1.99029">
        <ele>367.51</ele>
        <time>2019-08-28T10:22:07Z</time>
      </trkpt>
      <trkpt lat="44.31298" lon="1.99061">
        <ele>366.569</ele>
        <time>2019-08-28T10:22:12Z</time>
      </trkpt>
      <trkpt lat="44.31287" lon="1.99097">
        <ele>365.274</ele>
        <time>2019-08-28T10:22:17Z</time>
      </trkpt>
      <trkpt lat="44.31273" lon="1.99126">
        <ele>364.264</ele>
        <time>2019-08-28T10:22:22Z</time>
      </trkpt>
      <trkpt lat="44.31251" lon="1.9916">
        <ele>363.391</ele>
        <time>2019-08-28T10:22:28Z</time>
      </trkpt>
      <trkpt lat="44.31223" lon="1.99186">
        <ele>365.123</ele>
        <time>2019-08-28T10:22:34Z</time>
      </trkpt>
      <trkpt lat="44.31201" lon="1.99212">
        <ele>366.095</ele>
        <time>2019-08-28T10:22:40Z</time>
      </trkpt>
      <trkpt lat="44.31177" lon="1.99235">
        <ele>368.821</ele>
        <time>2019-08-28T10:22:46Z</time>
      </trkpt>
      <trkpt lat="44.31155" lon="1.99248">
        <ele>370.345</ele>
        <time>2019-08-28T10:22:52Z</time>
      </trkpt>
      <trkpt lat="44.31136" lon="1.99264">
        <ele>372.088</ele>
        <time>2019-08-28T10:22:57Z</time>
      </trkpt>
      <trkpt lat="44.31114" lon="1.99284">
        <ele>373.308</ele>
        <time>2019-08-28T10:23:03Z</time>
      </trkpt>
      <trkpt lat="44.31095" lon="1.99303">
        <ele>374.488</ele>
        <time>2019-08-28T10:23:08Z</time>
      </trkpt>
      <trkpt lat="44.31069" lon="1.99328">
        <ele>378.106</ele>
        <time>2019-08-28T10:23:14Z</time>
      </trkpt>
      <trkpt lat="44.31045" lon="1.99346">
        <ele>379.371</ele>
        <time>2019-08-28T10:23:20Z</time>
      </trkpt>
      <trkpt lat="44.3102" lon="1.99368">
        <ele>380.564</ele>
        <time>2019-08-28T10:23:26Z</time>
      </trkpt>
      <trkpt lat="44.30999" lon="1.99383">
        <ele>382.111</ele>
        <time>2019-08-28T10:23:31Z</time>
      </trkpt>
      <trkpt lat="44.30982" lon="1.99409">
        <ele>384.616</ele>
        <time>2019-08-28T10:23:37Z</time>
      </trkpt>
      <trkpt lat="44.3097" lon="1.99446">
        <ele>385.66</ele>
        <time>2019-08-28T10:23:44Z</time>
      </trkpt>
      <trkpt lat="44.30953" lon="1.99486">
        <ele>387.318</ele>
        <time>2019-08-28T10:23:49Z</time>
      </trkpt>
      <trkpt lat="44.30936" lon="1.99523">
        <ele>388.249</ele>
        <time>2019-08-28T10:23:54Z</time>
      </trkpt>
      <trkpt lat="44.30918" lon="1.99559">
        <ele>386.098</ele>
        <time>2019-08-28T10:23:59Z</time>
      </trkpt>
      <trkpt lat="44.30903" lon="1.99596">
        <ele>384.289</ele>
        <time>2019-08-28T10:24:04Z</time>
      </trkpt>
      <trkpt lat="44.30885" lon="1.99639">
        <ele>381.007</ele>
        <time>2019-08-28T10:24:10Z</time>
      </trkpt>
      <trkpt lat="44.30861" lon="1.99702">
        <ele>377.34</ele>
        <time>2019-08-28T10:24:16Z</time>
      </trkpt>
      <trkpt lat="44.30837" lon="1.99772">
        <ele>374.193</ele>
        <time>2019-08-28T10:24:22Z</time>
      </trkpt>
      <trkpt lat="44.30813" lon="1.99842">
        <ele>372.048</ele>
        <time>2019-08-28T10:24:28Z</time>
      </trkpt>
      <trkpt lat="44.30793" lon="1.99899">
        <ele>369.894</ele>
        <time>2019-08-28T10:24:33Z</time>
      </trkpt>
      <trkpt lat="44.30777" lon="1.9996">
        <ele>367.479</ele>
        <time>2019-08-28T10:24:38Z</time>
      </trkpt>
      <trkpt lat="44.30777" lon="2.00041">
        <ele>364.252</ele>
        <time>2019-08-28T10:24:45Z</time>
      </trkpt>
      <trkpt lat="44.30776" lon="2.00123">
        <ele>360.682</ele>
        <time>2019-08-28T10:24:50Z</time>
      </trkpt>
      <trkpt lat="44.30767" lon="2.002">
        <ele>358.077</ele>
        <time>2019-08-28T10:24:56Z</time>
      </trkpt>
      <trkpt lat="44.30756" lon="2.00257">
        <ele>355.971</ele>
        <time>2019-08-28T10:25:01Z</time>
      </trkpt>
      <trkpt lat="44.30749" lon="2.0032">
        <ele>354.015</ele>
        <time>2019-08-28T10:25:07Z</time>
      </trkpt>
      <trkpt lat="44.3074" lon="2.00378">
        <ele>352.299</ele>
        <time>2019-08-28T10:25:13Z</time>
      </trkpt>
      <trkpt lat="44.3073" lon="2.00421">
        <ele>351.394</ele>
        <time>2019-08-28T10:25:18Z</time>
      </trkpt>
      <trkpt lat="44.3072" lon="2.00466">
        <ele>350.126</ele>
        <time>2019-08-28T10:25:23Z</time>
      </trkpt>
      <trkpt lat="44.30705" lon="2.00522">
        <ele>348.677</ele>
        <time>2019-08-28T10:25:29Z</time>
      </trkpt>
      <trkpt lat="44.3068" lon="2.00543">
        <ele>347.514</ele>
        <time>2019-08-28T10:25:34Z</time>
      </trkpt>
      <trkpt lat="44.30634" lon="2.00551">
        <ele>345.471</ele>
        <time>2019-08-28T10:25:40Z</time>
      </trkpt>
      <trkpt lat="44.30606" lon="2.00584">
        <ele>344.279</ele>
        <time>2019-08-28T10:25:46Z</time>
      </trkpt>
      <trkpt lat="44.30587" lon="2.00623">
        <ele>341.832</ele>
        <time>2019-08-28T10:25:51Z</time>
      </trkpt>
      <trkpt lat="44.3056" lon="2.00645">
        <ele>340.491</ele>
        <time>2019-08-28T10:25:56Z</time>
      </trkpt>
      <trkpt lat="44.30527" lon="2.00662">
        <ele>339.266</ele>
        <time>2019-08-28T10:26:02Z</time>
      </trkpt>
      <trkpt lat="44.30495" lon="2.00676">
        <ele>338.29</ele>
        <time>2019-08-28T10:26:08Z</time>
      </trkpt>
      <trkpt lat="44.30477" lon="2.00671">
        <ele>337.818</ele>
        <time>2019-08-28T10:26:14Z</time>
      </trkpt>
      <trkpt lat="44.30452" lon="2.0064">
        <ele>337.472</ele>
        <time>2019-08-28T10:26:20Z</time>
      </trkpt>
      <trkpt lat="44.30429" lon="2.00637">
        <ele>336.104</ele>
        <time>2019-08-28T10:26:26Z</time>
      </trkpt>
      <trkpt lat="44.30396" lon="2.0064">
        <ele>332.359</ele>
        <time>2019-08-28T10:26:32Z</time>
      </trkpt>
      <trkpt lat="44.3037" lon="2.00633">
        <ele>328.309</ele>
        <time>2019-08-28T10:26:38Z</time>
      </trkpt>
      <trkpt lat="44.30347" lon="2.00628">
        <ele>325.233</ele>
        <time>2019-08-28T10:26:44Z</time>
      </trkpt>
      <trkpt lat="44.3034" lon="2.00616">
        <ele>322.587</ele>
        <time>2019-08-28T10:27:00Z</time>
      </trkpt>
      <trkpt lat="44.30333" lon="2.0059">
        <ele>321.291</ele>
        <time>2019-08-28T10:27:06Z</time>
      </trkpt>
      <trkpt lat="44.30315" lon="2.00562">
        <ele>320.932</ele>
        <time>2019-08-28T10:27:11Z</time>
      </trkpt>
      <trkpt lat="44.30289" lon="2.00537">
        <ele>319.511</ele>
        <time>2019-08-28T10:27:17Z</time>
      </trkpt>
      <trkpt lat="44.30271" lon="2.0051">
        <ele>317.275</ele>
        <time>2019-08-28T10:27:23Z</time>
      </trkpt>
      <trkpt lat="44.30261" lon="2.00496">
        <ele>314.339</ele>
        <time>2019-08-28T10:27:29Z</time>
      </trkpt>
      <trkpt lat="44.30252" lon="2.0051">
        <ele>312.832</ele>
        <time>2019-08-28T10:27:35Z</time>
      </trkpt>
      <trkpt lat="44.30255" lon="2.00563">
        <ele>308.909</ele>
        <time>2019-08-28T10:27:40Z</time>
      </trkpt>
      <trkpt lat="44.30253" lon="2.00604">
        <ele>306.643</ele>
        <time>2019-08-28T10:27:45Z</time>
      </trkpt>
      <trkpt lat="44.30234" lon="2.00647">
        <ele>304.473</ele>
        <time>2019-08-28T10:27:50Z</time>
      </trkpt>
      <trkpt lat="44.3022" lon="2.00702">
        <ele>300.585</ele>
        <time>2019-08-28T10:27:56Z</time>
      </trkpt>
      <trkpt lat="44.30203" lon="2.00747">
        <ele>296.633</ele>
        <time>2019-08-28T10:28:01Z</time>
      </trkpt>
      <trkpt lat="44.30178" lon="2.00792">
        <ele>292.33</ele>
        <time>2019-08-28T10:28:07Z</time>
      </trkpt>
      <trkpt lat="44.30154" lon="2.00818">
        <ele>289.82</ele>
        <time>2019-08-28T10:28:12Z</time>
      </trkpt>
      <trkpt lat="44.30138" lon="2.00836">
        <ele>287.07</ele>
        <time>2019-08-28T10:28:18Z</time>
      </trkpt>
      <trkpt lat="44.30119" lon="2.00867">
        <ele>282.99</ele>
        <time>2019-08-28T10:28:24Z</time>
      </trkpt>
      <trkpt lat="44.30101" lon="2.00888">
        <ele>281.154</ele>
        <time>2019-08-28T10:28:30Z</time>
      </trkpt>
      <trkpt lat="44.30079" lon="2.0091">
        <ele>277.77</ele>
        <time>2019-08-28T10:28:35Z</time>
      </trkpt>
      <trkpt lat="44.30064" lon="2.00914">
        <ele>274.378</ele>
        <time>2019-08-28T10:28:40Z</time>
      </trkpt>
      <trkpt lat="44.30053" lon="2.00917">
        <ele>272.459</ele>
        <time>2019-08-28T10:29:02Z</time>
      </trkpt>
      <trkpt lat="44.30021" lon="2.00928">
        <ele>270.498</ele>
        <time>2019-08-28T10:29:08Z</time>
      </trkpt>
      <trkpt lat="44.29987" lon="2.00935">
        <ele>268.012</ele>
        <time>2019-08-28T10:29:13Z</time>
      </trkpt>
      <trkpt lat="44.29955" lon="2.00947">
        <ele>264.603</ele>
        <time>2019-08-28T10:29:19Z</time>
      </trkpt>
      <trkpt lat="44.29933" lon="2.00943">
        <ele>261.267</ele>
        <time>2019-08-28T10:29:24Z</time>
      </trkpt>
      <trkpt lat="44.29903" lon="2.00934">
        <ele>257.865</ele>
        <time>2019-08-28T10:29:29Z</time>
      </trkpt>
      <trkpt lat="44.2989" lon="2.00941">
        <ele>256.758</ele>
        <time>2019-08-28T10:29:35Z</time>
      </trkpt>
      <trkpt lat="44.29901" lon="2.00952">
        <ele>256.625</ele>
        <time>2019-08-28T10:29:46Z</time>
      </trkpt>
      <trkpt lat="44.29926" lon="2.00957">
        <ele>255.637</ele>
        <time>2019-08-28T10:29:51Z</time>
      </trkpt>
      <trkpt lat="44.2996" lon="2.00963">
        <ele>254.43</ele>
        <time>2019-08-28T10:29:57Z</time>
      </trkpt>
      <trkpt lat="44.29991" lon="2.00965">
        <ele>252.401</ele>
        <time>2019-08-28T10:30:03Z</time>
      </trkpt>
      <trkpt lat="44.30017" lon="2.00969">
        <ele>251.471</ele>
        <time>2019-08-28T10:30:09Z</time>
      </trkpt>
      <trkpt lat="44.30048" lon="2.0097">
        <ele>250.848</ele>
        <time>2019-08-28T10:30:14Z</time>
      </trkpt>
      <trkpt lat="44.30081" lon="2.00968">
        <ele>249.248</ele>
        <time>2019-08-28T10:30:20Z</time>
      </trkpt>
      <trkpt lat="44.30107" lon="2.00968">
        <ele>248.985</ele>
        <time>2019-08-28T10:30:25Z</time>
      </trkpt>
      <trkpt lat="44.30138" lon="2.00968">
        <ele>247.859</ele>
        <time>2019-08-28T10:30:31Z</time>
      </trkpt>
      <trkpt lat="44.30169" lon="2.0097">
        <ele>248.217</ele>
        <time>2019-08-28T10:30:37Z</time>
      </trkpt>
      <trkpt lat="44.30196" lon="2.00967">
        <ele>247.85</ele>
        <time>2019-08-28T10:30:42Z</time>
      </trkpt>
      <trkpt lat="44.30226" lon="2.00965">
        <ele>248.016</ele>
        <time>2019-08-28T10:30:48Z</time>
      </trkpt>
      <trkpt lat="44.30393" lon="2.00964">
        <ele>251.322</ele>
        <time>2019-08-28T10:31:19Z</time>
      </trkpt>
      <trkpt lat="44.30422" lon="2.00966">
        <ele>249.512</ele>
        <time>2019-08-28T10:31:26Z</time>
      </trkpt>
      <trkpt lat="44.2997" lon="2.01">
        <ele>238.999</ele>
        <time>2019-08-28T10:32:39Z</time>
      </trkpt>
      <trkpt lat="44.29925" lon="2.01025">
        <ele>236.757</ele>
        <time>2019-08-28T10:32:48Z</time>
      </trkpt>
      <trkpt lat="44.29896" lon="2.01043">
        <ele>233.453</ele>
        <time>2019-08-28T10:32:56Z</time>
      </trkpt>
      <trkpt lat="44.29884" lon="2.01042">
        <ele>232.093</ele>
        <time>2019-08-28T10:33:01Z</time>
      </trkpt>
      <trkpt lat="44.29854" lon="2.01044">
        <ele>228.297</ele>
        <time>2019-08-28T10:33:15Z</time>
      </trkpt>
      <trkpt lat="44.29837" lon="2.01042">
        <ele>229.229</ele>
        <time>2019-08-28T10:33:24Z</time>
      </trkpt>
      <trkpt lat="44.29827" lon="2.01038">
        <ele>230.737</ele>
        <time>2019-08-28T10:33:31Z</time>
      </trkpt>
      <trkpt lat="44.29811" lon="2.01028">
        <ele>232.519</ele>
        <time>2019-08-28T10:33:36Z</time>
      </trkpt>
      <trkpt lat="44.29797" lon="2.01017">
        <ele>232.98</ele>
        <time>2019-08-28T10:33:42Z</time>
      </trkpt>
      <trkpt lat="44.29784" lon="2.01011">
        <ele>232.117</ele>
        <time>2019-08-28T10:33:47Z</time>
      </trkpt>
      <trkpt lat="44.2976" lon="2.01012">
        <ele>231.582</ele>
        <time>2019-08-28T10:33:53Z</time>
      </trkpt>
      <trkpt lat="44.29738" lon="2.01011">
        <ele>231.793</ele>
        <time>2019-08-28T10:33:59Z</time>
      </trkpt>
      <trkpt lat="44.29722" lon="2.01006">
        <ele>232.575</ele>
        <time>2019-08-28T10:34:04Z</time>
      </trkpt>
      <trkpt lat="44.29698" lon="2.01003">
        <ele>233.97</ele>
        <time>2019-08-28T10:34:10Z</time>
      </trkpt>
      <trkpt lat="44.29675" lon="2.01002">
        <ele>235.003</ele>
        <time>2019-08-28T10:34:15Z</time>
      </trkpt>
      <trkpt lat="44.29659" lon="2.01001">
        <ele>236.329</ele>
        <time>2019-08-28T10:34:20Z</time>
      </trkpt>
      <trkpt lat="44.29646" lon="2.00997">
        <ele>238.12</ele>
        <time>2019-08-28T10:34:26Z</time>
      </trkpt>
      <trkpt lat="44.29631" lon="2.00992">
        <ele>238.631</ele>
        <time>2019-08-28T10:34:31Z</time>
      </trkpt>
      <trkpt lat="44.29615" lon="2.00984">
        <ele>239.417</ele>
        <time>2019-08-28T10:34:37Z</time>
      </trkpt>
      <trkpt lat="44.29604" lon="2.00989">
        <ele>241.366</ele>
        <time>2019-08-28T10:34:43Z</time>
      </trkpt>
      <trkpt lat="44.29595" lon="2.01007">
        <ele>240.612</ele>
        <time>2019-08-28T10:34:49Z</time>
      </trkpt>
      <trkpt lat="44.29587" lon="2.01019">
        <ele>239.662</ele>
        <time>2019-08-28T10:34:54Z</time>
      </trkpt>
      <trkpt lat="44.29577" lon="2.0103">
        <ele>238.514</ele>
        <time>2019-08-28T10:34:59Z</time>
      </trkpt>
      <trkpt lat="44.29565" lon="2.01034">
        <ele>238.246</ele>
        <time>2019-08-28T10:35:05Z</time>
      </trkpt>
      <trkpt lat="44.29556" lon="2.01037">
        <ele>237.912</ele>
        <time>2019-08-28T10:35:11Z</time>
      </trkpt>
      <trkpt lat="44.29556" lon="2.01052">
        <ele>236.977</ele>
        <time>2019-08-28T10:35:16Z</time>
      </trkpt>
      <trkpt lat="44.29558" lon="2.01039">
        <ele>232.734</ele>
        <time>2019-08-28T10:35:46Z</time>
      </trkpt>
      <trkpt lat="44.29568" lon="2.01036">
        <ele>233.882</ele>
        <time>2019-08-28T10:35:52Z</time>
      </trkpt>
      <trkpt lat="44.29579" lon="2.01033">
        <ele>235.824</ele>
        <time>2019-08-28T10:36:23Z</time>
      </trkpt>
      <trkpt lat="44.2959" lon="2.01014">
        <ele>235.368</ele>
        <time>2019-08-28T10:36:28Z</time>
      </trkpt>
      <trkpt lat="44.29599" lon="2.00997">
        <ele>234.986</ele>
        <time>2019-08-28T10:36:33Z</time>
      </trkpt>
      <trkpt lat="44.29596" lon="2.00983">
        <ele>234.7</ele>
        <time>2019-08-28T10:36:38Z</time>
      </trkpt>
      <trkpt lat="44.29585" lon="2.00971">
        <ele>235.814</ele>
        <time>2019-08-28T10:36:43Z</time>
      </trkpt>
      <trkpt lat="44.29571" lon="2.0096">
        <ele>236.072</ele>
        <time>2019-08-28T10:36:49Z</time>
      </trkpt>
      <trkpt lat="44.29555" lon="2.00949">
        <ele>236.286</ele>
        <time>2019-08-28T10:36:55Z</time>
      </trkpt>
      <trkpt lat="44.29535" lon="2.00935">
        <ele>235.438</ele>
        <time>2019-08-28T10:37:01Z</time>
      </trkpt>
      <trkpt lat="44.29518" lon="2.00923">
        <ele>235.151</ele>
        <time>2019-08-28T10:37:07Z</time>
      </trkpt>
      <trkpt lat="44.295" lon="2.00906">
        <ele>235.257</ele>
        <time>2019-08-28T10:37:13Z</time>
      </trkpt>
      <trkpt lat="44.29481" lon="2.00881">
        <ele>236.673</ele>
        <time>2019-08-28T10:37:18Z</time>
      </trkpt>
      <trkpt lat="44.29468" lon="2.00862">
        <ele>237.969</ele>
        <time>2019-08-28T10:37:24Z</time>
      </trkpt>
      <trkpt lat="44.29463" lon="2.00841">
        <ele>239.037</ele>
        <time>2019-08-28T10:37:30Z</time>
      </trkpt>
      <trkpt lat="44.29456" lon="2.0082">
        <ele>240.871</ele>
        <time>2019-08-28T10:37:36Z</time>
      </trkpt>
      <trkpt lat="44.2943" lon="2.00795">
        <ele>240.912</ele>
        <time>2019-08-28T10:37:41Z</time>
      </trkpt>
      <trkpt lat="44.29383" lon="2.00766">
        <ele>239.736</ele>
        <time>2019-08-28T10:37:47Z</time>
      </trkpt>
      <trkpt lat="44.2934" lon="2.00755">
        <ele>239.314</ele>
        <time>2019-08-28T10:37:52Z</time>
      </trkpt>
      <trkpt lat="44.29286" lon="2.00756">
        <ele>239.817</ele>
        <time>2019-08-28T10:37:58Z</time>
      </trkpt>
      <trkpt lat="44.29243" lon="2.00763">
        <ele>239.993</ele>
        <time>2019-08-28T10:38:03Z</time>
      </trkpt>
      <trkpt lat="44.29193" lon="2.00751">
        <ele>240.7</ele>
        <time>2019-08-28T10:38:09Z</time>
      </trkpt>
      <trkpt lat="44.29145" lon="2.00733">
        <ele>240.118</ele>
        <time>2019-08-28T10:38:15Z</time>
      </trkpt>
      <trkpt lat="44.29098" lon="2.00706">
        <ele>239.259</ele>
        <time>2019-08-28T10:38:21Z</time>
      </trkpt>
      <trkpt lat="44.29058" lon="2.00666">
        <ele>238.736</ele>
        <time>2019-08-28T10:38:27Z</time>
      </trkpt>
      <trkpt lat="44.29029" lon="2.00614">
        <ele>239.609</ele>
        <time>2019-08-28T10:38:33Z</time>
      </trkpt>
      <trkpt lat="44.29002" lon="2.0056">
        <ele>240.267</ele>
        <time>2019-08-28T10:38:39Z</time>
      </trkpt>
      <trkpt lat="44.28975" lon="2.00515">
        <ele>240.148</ele>
        <time>2019-08-28T10:38:44Z</time>
      </trkpt>
      <trkpt lat="44.28943" lon="2.00461">
        <ele>239.423</ele>
        <time>2019-08-28T10:38:50Z</time>
      </trkpt>
      <trkpt lat="44.28911" lon="2.00408">
        <ele>239.035</ele>
        <time>2019-08-28T10:38:56Z</time>
      </trkpt>
      <trkpt lat="44.28881" lon="2.00367">
        <ele>239.611</ele>
        <time>2019-08-28T10:39:01Z</time>
      </trkpt>
      <trkpt lat="44.28838" lon="2.00343">
        <ele>240.122</ele>
        <time>2019-08-28T10:39:07Z</time>
      </trkpt>
      <trkpt lat="44.2882" lon="2.00337">
        <ele>241.256</ele>
        <time>2019-08-28T10:39:12Z</time>
      </trkpt>
      <trkpt lat="44.28809" lon="2.00348">
        <ele>242.464</ele>
        <time>2019-08-28T10:39:17Z</time>
      </trkpt>
      <trkpt lat="44.28789" lon="2.00359">
        <ele>244.711</ele>
        <time>2019-08-28T10:39:23Z</time>
      </trkpt>
    </trkseg>
  </trk>
</gpx>